<?xml version="1.0" encoding="UTF-8" standalone="no" ?>
<gpx xmlns="http://www.topografix.com/GPX/1/1" xmlns:xsi="http://www.w3.org/2001/XMLSchema-instance" xsi:schemaLocation="http://www.topografix.com/GPX/1/1 http://www.topografix.com/GPX/1/1/gpx.xsd" version="1.1" creator="VisuGPX - https://www.visugpx.com">
  <metadata>
    <name>MOTO CORSICA</name>
  </metadata>
  <wpt lat="45.87977" lon="4.59604">
    <ele>292.6</ele>
    <name><![CDATA[Argon]]></name>
  </wpt>
  <wpt lat="41.62056" lon="9.29931">
    <ele>40.02</ele>
    <name><![CDATA[Camping Porto Vecchio]]></name>
  </wpt>
  <wpt lat="43.29702" lon="3.51216">
    <ele>-1.08</ele>
    <name><![CDATA[Cassiopee]]></name>
  </wpt>
  <wpt lat="41.62054" lon="9.29927">
    <ele>24.88</ele>
    <name><![CDATA[Dernière position]]></name>
  </wpt>
  <wpt lat="25.06178" lon="121.64027">
    <ele>38.1</ele>
    <name><![CDATA[Garmin Asia]]></name>
  </wpt>
  <wpt lat="50.9017" lon="-1.48935">
    <ele>35.93</ele>
    <name><![CDATA[Garmin Europe]]></name>
  </wpt>
  <wpt lat="38.85555" lon="-94.79902">
    <ele>325.05</ele>
    <name><![CDATA[Garmin USA]]></name>
  </wpt>
  <wpt lat="45.53375" lon="4.6308">
    <ele>238.77</ele>
    <name><![CDATA[Zezette]]></name>
  </wpt>
  <trk>
    <name><![CDATA[Enregistremen: 06 JUIN 2014 15:59]]></name>
    <trkseg>
      <trkpt lat="41.48372" lon="9.25217">
        <ele>155.87</ele>
        <time>2014-06-06T13:59:51Z</time>
      </trkpt>
      <trkpt lat="41.48371" lon="9.25224">
        <ele>155.39</ele>
        <time>2014-06-06T13:59:52Z</time>
      </trkpt>
      <trkpt lat="41.48369" lon="9.25231">
        <ele>154.43</ele>
        <time>2014-06-06T13:59:53Z</time>
      </trkpt>
      <trkpt lat="41.48365" lon="9.25236">
        <ele>153.95</ele>
        <time>2014-06-06T13:59:54Z</time>
      </trkpt>
      <trkpt lat="41.48359" lon="9.2524">
        <ele>153.47</ele>
        <time>2014-06-06T13:59:55Z</time>
      </trkpt>
      <trkpt lat="41.48354" lon="9.25243">
        <ele>152.51</ele>
        <time>2014-06-06T13:59:56Z</time>
      </trkpt>
      <trkpt lat="41.48347" lon="9.25244">
        <ele>151.54</ele>
        <time>2014-06-06T13:59:57Z</time>
      </trkpt>
      <trkpt lat="41.4834" lon="9.25246">
        <ele>150.58</ele>
        <time>2014-06-06T13:59:58Z</time>
      </trkpt>
      <trkpt lat="41.48326" lon="9.25254">
        <ele>149.62</ele>
        <time>2014-06-06T14:00:00Z</time>
      </trkpt>
      <trkpt lat="41.48308" lon="9.2527">
        <ele>148.18</ele>
        <time>2014-06-06T14:00:03Z</time>
      </trkpt>
      <trkpt lat="41.483" lon="9.25274">
        <ele>148.18</ele>
        <time>2014-06-06T14:00:04Z</time>
      </trkpt>
      <trkpt lat="41.48293" lon="9.25277">
        <ele>147.7</ele>
        <time>2014-06-06T14:00:05Z</time>
      </trkpt>
      <trkpt lat="41.48275" lon="9.25291">
        <ele>144.82</ele>
        <time>2014-06-06T14:00:08Z</time>
      </trkpt>
      <trkpt lat="41.48271" lon="9.25297">
        <ele>144.34</ele>
        <time>2014-06-06T14:00:09Z</time>
      </trkpt>
      <trkpt lat="41.48265" lon="9.25308">
        <ele>143.37</ele>
        <time>2014-06-06T14:00:11Z</time>
      </trkpt>
      <trkpt lat="41.48261" lon="9.25312">
        <ele>142.89</ele>
        <time>2014-06-06T14:00:12Z</time>
      </trkpt>
      <trkpt lat="41.48256" lon="9.25316">
        <ele>142.89</ele>
        <time>2014-06-06T14:00:13Z</time>
      </trkpt>
      <trkpt lat="41.48251" lon="9.2532">
        <ele>142.41</ele>
        <time>2014-06-06T14:00:14Z</time>
      </trkpt>
      <trkpt lat="41.48246" lon="9.25324">
        <ele>141.45</ele>
        <time>2014-06-06T14:00:15Z</time>
      </trkpt>
      <trkpt lat="41.48236" lon="9.25333">
        <ele>140.97</ele>
        <time>2014-06-06T14:00:17Z</time>
      </trkpt>
      <trkpt lat="41.48226" lon="9.2535">
        <ele>138.57</ele>
        <time>2014-06-06T14:00:20Z</time>
      </trkpt>
      <trkpt lat="41.48223" lon="9.25356">
        <ele>138.09</ele>
        <time>2014-06-06T14:00:21Z</time>
      </trkpt>
      <trkpt lat="41.48221" lon="9.25363">
        <ele>138.09</ele>
        <time>2014-06-06T14:00:22Z</time>
      </trkpt>
      <trkpt lat="41.48219" lon="9.2537">
        <ele>137.61</ele>
        <time>2014-06-06T14:00:23Z</time>
      </trkpt>
      <trkpt lat="41.48219" lon="9.25378">
        <ele>138.09</ele>
        <time>2014-06-06T14:00:24Z</time>
      </trkpt>
      <trkpt lat="41.4822" lon="9.25386">
        <ele>137.61</ele>
        <time>2014-06-06T14:00:25Z</time>
      </trkpt>
      <trkpt lat="41.4822" lon="9.25394">
        <ele>137.13</ele>
        <time>2014-06-06T14:00:26Z</time>
      </trkpt>
      <trkpt lat="41.48222" lon="9.25403">
        <ele>136.64</ele>
        <time>2014-06-06T14:00:27Z</time>
      </trkpt>
      <trkpt lat="41.48224" lon="9.25413">
        <ele>135.68</ele>
        <time>2014-06-06T14:00:28Z</time>
      </trkpt>
      <trkpt lat="41.48264" lon="9.25519">
        <ele>138.09</ele>
        <time>2014-06-06T14:00:39Z</time>
      </trkpt>
      <trkpt lat="41.48283" lon="9.25557">
        <ele>138.57</ele>
        <time>2014-06-06T14:00:43Z</time>
      </trkpt>
      <trkpt lat="41.48285" lon="9.25565">
        <ele>137.61</ele>
        <time>2014-06-06T14:00:44Z</time>
      </trkpt>
      <trkpt lat="41.48287" lon="9.25573">
        <ele>138.09</ele>
        <time>2014-06-06T14:00:45Z</time>
      </trkpt>
      <trkpt lat="41.48288" lon="9.25582">
        <ele>138.09</ele>
        <time>2014-06-06T14:00:46Z</time>
      </trkpt>
      <trkpt lat="41.48289" lon="9.2559">
        <ele>137.61</ele>
        <time>2014-06-06T14:00:47Z</time>
      </trkpt>
      <trkpt lat="41.48291" lon="9.25598">
        <ele>137.13</ele>
        <time>2014-06-06T14:00:48Z</time>
      </trkpt>
      <trkpt lat="41.48293" lon="9.25607">
        <ele>136.16</ele>
        <time>2014-06-06T14:00:49Z</time>
      </trkpt>
      <trkpt lat="41.48304" lon="9.25641">
        <ele>133.76</ele>
        <time>2014-06-06T14:00:53Z</time>
      </trkpt>
      <trkpt lat="41.48308" lon="9.25649">
        <ele>133.28</ele>
        <time>2014-06-06T14:00:54Z</time>
      </trkpt>
      <trkpt lat="41.48312" lon="9.25654">
        <ele>132.8</ele>
        <time>2014-06-06T14:00:55Z</time>
      </trkpt>
      <trkpt lat="41.48317" lon="9.25658">
        <ele>131.84</ele>
        <time>2014-06-06T14:00:56Z</time>
      </trkpt>
      <trkpt lat="41.48323" lon="9.2566">
        <ele>131.36</ele>
        <time>2014-06-06T14:00:57Z</time>
      </trkpt>
      <trkpt lat="41.48329" lon="9.25662">
        <ele>130.4</ele>
        <time>2014-06-06T14:00:58Z</time>
      </trkpt>
      <trkpt lat="41.48342" lon="9.25669">
        <ele>128.47</ele>
        <time>2014-06-06T14:01:00Z</time>
      </trkpt>
      <trkpt lat="41.48348" lon="9.25674">
        <ele>127.51</ele>
        <time>2014-06-06T14:01:01Z</time>
      </trkpt>
      <trkpt lat="41.48355" lon="9.25681">
        <ele>126.07</ele>
        <time>2014-06-06T14:01:02Z</time>
      </trkpt>
      <trkpt lat="41.48361" lon="9.25689">
        <ele>125.11</ele>
        <time>2014-06-06T14:01:03Z</time>
      </trkpt>
      <trkpt lat="41.48367" lon="9.25696">
        <ele>123.67</ele>
        <time>2014-06-06T14:01:04Z</time>
      </trkpt>
      <trkpt lat="41.48373" lon="9.25705">
        <ele>122.71</ele>
        <time>2014-06-06T14:01:05Z</time>
      </trkpt>
      <trkpt lat="41.48378" lon="9.25715">
        <ele>121.26</ele>
        <time>2014-06-06T14:01:06Z</time>
      </trkpt>
      <trkpt lat="41.48382" lon="9.25725">
        <ele>120.78</ele>
        <time>2014-06-06T14:01:07Z</time>
      </trkpt>
      <trkpt lat="41.48386" lon="9.25735">
        <ele>119.34</ele>
        <time>2014-06-06T14:01:08Z</time>
      </trkpt>
      <trkpt lat="41.48399" lon="9.25766">
        <ele>116.94</ele>
        <time>2014-06-06T14:01:11Z</time>
      </trkpt>
      <trkpt lat="41.48405" lon="9.25776">
        <ele>115.98</ele>
        <time>2014-06-06T14:01:12Z</time>
      </trkpt>
      <trkpt lat="41.48442" lon="9.25837">
        <ele>113.09</ele>
        <time>2014-06-06T14:01:18Z</time>
      </trkpt>
      <trkpt lat="41.48449" lon="9.25845">
        <ele>113.09</ele>
        <time>2014-06-06T14:01:19Z</time>
      </trkpt>
      <trkpt lat="41.48456" lon="9.25852">
        <ele>112.61</ele>
        <time>2014-06-06T14:01:20Z</time>
      </trkpt>
      <trkpt lat="41.48487" lon="9.25879">
        <ele>111.65</ele>
        <time>2014-06-06T14:01:24Z</time>
      </trkpt>
      <trkpt lat="41.48494" lon="9.25888">
        <ele>111.17</ele>
        <time>2014-06-06T14:01:25Z</time>
      </trkpt>
      <trkpt lat="41.48522" lon="9.25929">
        <ele>107.81</ele>
        <time>2014-06-06T14:01:29Z</time>
      </trkpt>
      <trkpt lat="41.48536" lon="9.25948">
        <ele>106.84</ele>
        <time>2014-06-06T14:01:31Z</time>
      </trkpt>
      <trkpt lat="41.48542" lon="9.25957">
        <ele>106.36</ele>
        <time>2014-06-06T14:01:32Z</time>
      </trkpt>
      <trkpt lat="41.48547" lon="9.25966">
        <ele>105.4</ele>
        <time>2014-06-06T14:01:33Z</time>
      </trkpt>
      <trkpt lat="41.48551" lon="9.25975">
        <ele>104.92</ele>
        <time>2014-06-06T14:01:34Z</time>
      </trkpt>
      <trkpt lat="41.48554" lon="9.25985">
        <ele>104.44</ele>
        <time>2014-06-06T14:01:35Z</time>
      </trkpt>
      <trkpt lat="41.48556" lon="9.25995">
        <ele>103.48</ele>
        <time>2014-06-06T14:01:36Z</time>
      </trkpt>
      <trkpt lat="41.48555" lon="9.26005">
        <ele>103.48</ele>
        <time>2014-06-06T14:01:37Z</time>
      </trkpt>
      <trkpt lat="41.48553" lon="9.26014">
        <ele>102.04</ele>
        <time>2014-06-06T14:01:38Z</time>
      </trkpt>
      <trkpt lat="41.48548" lon="9.26023">
        <ele>101.56</ele>
        <time>2014-06-06T14:01:39Z</time>
      </trkpt>
      <trkpt lat="41.48543" lon="9.26031">
        <ele>101.56</ele>
        <time>2014-06-06T14:01:40Z</time>
      </trkpt>
      <trkpt lat="41.48536" lon="9.2604">
        <ele>101.56</ele>
        <time>2014-06-06T14:01:41Z</time>
      </trkpt>
      <trkpt lat="41.48525" lon="9.26059">
        <ele>100.6</ele>
        <time>2014-06-06T14:01:43Z</time>
      </trkpt>
      <trkpt lat="41.4852" lon="9.26069">
        <ele>100.11</ele>
        <time>2014-06-06T14:01:44Z</time>
      </trkpt>
      <trkpt lat="41.48509" lon="9.26099">
        <ele>98.19</ele>
        <time>2014-06-06T14:01:47Z</time>
      </trkpt>
      <trkpt lat="41.48504" lon="9.26105">
        <ele>97.71</ele>
        <time>2014-06-06T14:01:48Z</time>
      </trkpt>
      <trkpt lat="41.48498" lon="9.26109">
        <ele>97.23</ele>
        <time>2014-06-06T14:01:49Z</time>
      </trkpt>
      <trkpt lat="41.48492" lon="9.26112">
        <ele>96.75</ele>
        <time>2014-06-06T14:01:50Z</time>
      </trkpt>
      <trkpt lat="41.48485" lon="9.26113">
        <ele>96.27</ele>
        <time>2014-06-06T14:01:51Z</time>
      </trkpt>
      <trkpt lat="41.48478" lon="9.26114">
        <ele>95.31</ele>
        <time>2014-06-06T14:01:52Z</time>
      </trkpt>
      <trkpt lat="41.48435" lon="9.26116">
        <ele>91.46</ele>
        <time>2014-06-06T14:01:57Z</time>
      </trkpt>
      <trkpt lat="41.4838" lon="9.2611">
        <ele>89.06</ele>
        <time>2014-06-06T14:02:02Z</time>
      </trkpt>
      <trkpt lat="41.4837" lon="9.26112">
        <ele>88.58</ele>
        <time>2014-06-06T14:02:03Z</time>
      </trkpt>
      <trkpt lat="41.48306" lon="9.2613">
        <ele>85.21</ele>
        <time>2014-06-06T14:02:09Z</time>
      </trkpt>
      <trkpt lat="41.48264" lon="9.2615">
        <ele>82.33</ele>
        <time>2014-06-06T14:02:14Z</time>
      </trkpt>
      <trkpt lat="41.48257" lon="9.26154">
        <ele>81.85</ele>
        <time>2014-06-06T14:02:15Z</time>
      </trkpt>
      <trkpt lat="41.48251" lon="9.26161">
        <ele>81.37</ele>
        <time>2014-06-06T14:02:16Z</time>
      </trkpt>
      <trkpt lat="41.48246" lon="9.26168">
        <ele>80.89</ele>
        <time>2014-06-06T14:02:17Z</time>
      </trkpt>
      <trkpt lat="41.48243" lon="9.26177">
        <ele>80.41</ele>
        <time>2014-06-06T14:02:18Z</time>
      </trkpt>
      <trkpt lat="41.48239" lon="9.26186">
        <ele>80.41</ele>
        <time>2014-06-06T14:02:19Z</time>
      </trkpt>
      <trkpt lat="41.4823" lon="9.26205">
        <ele>79.93</ele>
        <time>2014-06-06T14:02:21Z</time>
      </trkpt>
      <trkpt lat="41.48227" lon="9.26215">
        <ele>79.45</ele>
        <time>2014-06-06T14:02:22Z</time>
      </trkpt>
      <trkpt lat="41.4819" lon="9.26279">
        <ele>77.52</ele>
        <time>2014-06-06T14:02:29Z</time>
      </trkpt>
      <trkpt lat="41.48183" lon="9.26285">
        <ele>77.04</ele>
        <time>2014-06-06T14:02:30Z</time>
      </trkpt>
      <trkpt lat="41.48175" lon="9.26289">
        <ele>76.56</ele>
        <time>2014-06-06T14:02:31Z</time>
      </trkpt>
      <trkpt lat="41.48071" lon="9.26351">
        <ele>72.24</ele>
        <time>2014-06-06T14:02:42Z</time>
      </trkpt>
      <trkpt lat="41.47985" lon="9.26415">
        <ele>75.12</ele>
        <time>2014-06-06T14:02:52Z</time>
      </trkpt>
      <trkpt lat="41.47969" lon="9.26436">
        <ele>78.97</ele>
        <time>2014-06-06T14:02:59Z</time>
      </trkpt>
      <trkpt lat="41.47964" lon="9.26444">
        <ele>81.37</ele>
        <time>2014-06-06T14:03:15Z</time>
      </trkpt>
      <trkpt lat="41.47947" lon="9.26476">
        <ele>79.93</ele>
        <time>2014-06-06T14:03:20Z</time>
      </trkpt>
      <trkpt lat="41.47942" lon="9.2648">
        <ele>79.93</ele>
        <time>2014-06-06T14:03:21Z</time>
      </trkpt>
      <trkpt lat="41.47937" lon="9.26484">
        <ele>79.45</ele>
        <time>2014-06-06T14:03:22Z</time>
      </trkpt>
      <trkpt lat="41.47932" lon="9.26486">
        <ele>78.97</ele>
        <time>2014-06-06T14:03:23Z</time>
      </trkpt>
      <trkpt lat="41.47926" lon="9.26488">
        <ele>78.48</ele>
        <time>2014-06-06T14:03:24Z</time>
      </trkpt>
      <trkpt lat="41.47915" lon="9.26491">
        <ele>77.04</ele>
        <time>2014-06-06T14:03:26Z</time>
      </trkpt>
      <trkpt lat="41.47911" lon="9.26495">
        <ele>76.08</ele>
        <time>2014-06-06T14:03:27Z</time>
      </trkpt>
      <trkpt lat="41.47909" lon="9.26499">
        <ele>75.6</ele>
        <time>2014-06-06T14:03:28Z</time>
      </trkpt>
      <trkpt lat="41.47908" lon="9.26504">
        <ele>74.64</ele>
        <time>2014-06-06T14:03:29Z</time>
      </trkpt>
      <trkpt lat="41.4791" lon="9.2651">
        <ele>74.16</ele>
        <time>2014-06-06T14:03:30Z</time>
      </trkpt>
      <trkpt lat="41.47913" lon="9.26517">
        <ele>73.68</ele>
        <time>2014-06-06T14:03:31Z</time>
      </trkpt>
      <trkpt lat="41.47918" lon="9.26524">
        <ele>73.2</ele>
        <time>2014-06-06T14:03:32Z</time>
      </trkpt>
      <trkpt lat="41.47922" lon="9.26532">
        <ele>72.24</ele>
        <time>2014-06-06T14:03:33Z</time>
      </trkpt>
      <trkpt lat="41.47927" lon="9.26542">
        <ele>72.24</ele>
        <time>2014-06-06T14:03:34Z</time>
      </trkpt>
      <trkpt lat="41.47931" lon="9.26552">
        <ele>71.76</ele>
        <time>2014-06-06T14:03:35Z</time>
      </trkpt>
      <trkpt lat="41.47934" lon="9.26563">
        <ele>71.27</ele>
        <time>2014-06-06T14:03:36Z</time>
      </trkpt>
      <trkpt lat="41.47937" lon="9.26574">
        <ele>70.79</ele>
        <time>2014-06-06T14:03:37Z</time>
      </trkpt>
      <trkpt lat="41.4794" lon="9.26584">
        <ele>70.31</ele>
        <time>2014-06-06T14:03:38Z</time>
      </trkpt>
      <trkpt lat="41.47941" lon="9.26595">
        <ele>69.83</ele>
        <time>2014-06-06T14:03:39Z</time>
      </trkpt>
      <trkpt lat="41.47942" lon="9.26605">
        <ele>68.87</ele>
        <time>2014-06-06T14:03:40Z</time>
      </trkpt>
      <trkpt lat="41.47941" lon="9.26615">
        <ele>68.39</ele>
        <time>2014-06-06T14:03:41Z</time>
      </trkpt>
      <trkpt lat="41.47938" lon="9.26625">
        <ele>67.91</ele>
        <time>2014-06-06T14:03:42Z</time>
      </trkpt>
      <trkpt lat="41.47934" lon="9.26634">
        <ele>67.43</ele>
        <time>2014-06-06T14:03:43Z</time>
      </trkpt>
      <trkpt lat="41.47929" lon="9.26642">
        <ele>66.47</ele>
        <time>2014-06-06T14:03:44Z</time>
      </trkpt>
      <trkpt lat="41.47923" lon="9.2665">
        <ele>65.99</ele>
        <time>2014-06-06T14:03:45Z</time>
      </trkpt>
      <trkpt lat="41.47917" lon="9.26658">
        <ele>65.51</ele>
        <time>2014-06-06T14:03:46Z</time>
      </trkpt>
      <trkpt lat="41.4791" lon="9.26665">
        <ele>65.03</ele>
        <time>2014-06-06T14:03:47Z</time>
      </trkpt>
      <trkpt lat="41.47836" lon="9.26735">
        <ele>59.74</ele>
        <time>2014-06-06T14:03:57Z</time>
      </trkpt>
      <trkpt lat="41.47812" lon="9.26758">
        <ele>56.37</ele>
        <time>2014-06-06T14:04:07Z</time>
      </trkpt>
      <trkpt lat="41.47806" lon="9.26765">
        <ele>56.86</ele>
        <time>2014-06-06T14:04:10Z</time>
      </trkpt>
      <trkpt lat="41.47803" lon="9.26769">
        <ele>55.41</ele>
        <time>2014-06-06T14:04:11Z</time>
      </trkpt>
      <trkpt lat="41.47793" lon="9.26791">
        <ele>55.89</ele>
        <time>2014-06-06T14:04:16Z</time>
      </trkpt>
      <trkpt lat="41.47792" lon="9.26796">
        <ele>56.37</ele>
        <time>2014-06-06T14:04:17Z</time>
      </trkpt>
      <trkpt lat="41.47791" lon="9.26802">
        <ele>56.37</ele>
        <time>2014-06-06T14:04:18Z</time>
      </trkpt>
      <trkpt lat="41.47784" lon="9.2684">
        <ele>55.41</ele>
        <time>2014-06-06T14:04:24Z</time>
      </trkpt>
      <trkpt lat="41.47782" lon="9.26844">
        <ele>54.93</ele>
        <time>2014-06-06T14:04:25Z</time>
      </trkpt>
      <trkpt lat="41.47779" lon="9.26849">
        <ele>54.45</ele>
        <time>2014-06-06T14:04:26Z</time>
      </trkpt>
      <trkpt lat="41.47775" lon="9.26852">
        <ele>54.45</ele>
        <time>2014-06-06T14:04:27Z</time>
      </trkpt>
      <trkpt lat="41.47771" lon="9.26855">
        <ele>53.97</ele>
        <time>2014-06-06T14:04:28Z</time>
      </trkpt>
      <trkpt lat="41.47765" lon="9.26858">
        <ele>52.05</ele>
        <time>2014-06-06T14:04:29Z</time>
      </trkpt>
      <trkpt lat="41.4776" lon="9.26862">
        <ele>51.57</ele>
        <time>2014-06-06T14:04:30Z</time>
      </trkpt>
      <trkpt lat="41.47755" lon="9.26866">
        <ele>50.61</ele>
        <time>2014-06-06T14:04:31Z</time>
      </trkpt>
      <trkpt lat="41.4775" lon="9.26872">
        <ele>49.65</ele>
        <time>2014-06-06T14:04:32Z</time>
      </trkpt>
      <trkpt lat="41.47746" lon="9.26878">
        <ele>48.68</ele>
        <time>2014-06-06T14:04:33Z</time>
      </trkpt>
      <trkpt lat="41.47744" lon="9.26885">
        <ele>48.2</ele>
        <time>2014-06-06T14:04:34Z</time>
      </trkpt>
      <trkpt lat="41.47741" lon="9.26892">
        <ele>48.2</ele>
        <time>2014-06-06T14:04:35Z</time>
      </trkpt>
      <trkpt lat="41.47739" lon="9.26898">
        <ele>47.72</ele>
        <time>2014-06-06T14:04:36Z</time>
      </trkpt>
      <trkpt lat="41.47734" lon="9.26912">
        <ele>46.76</ele>
        <time>2014-06-06T14:04:38Z</time>
      </trkpt>
      <trkpt lat="41.4773" lon="9.26918">
        <ele>46.28</ele>
        <time>2014-06-06T14:04:39Z</time>
      </trkpt>
      <trkpt lat="41.47725" lon="9.26924">
        <ele>45.8</ele>
        <time>2014-06-06T14:04:40Z</time>
      </trkpt>
      <trkpt lat="41.4772" lon="9.26929">
        <ele>45.32</ele>
        <time>2014-06-06T14:04:41Z</time>
      </trkpt>
      <trkpt lat="41.47715" lon="9.26932">
        <ele>44.84</ele>
        <time>2014-06-06T14:04:42Z</time>
      </trkpt>
      <trkpt lat="41.47711" lon="9.26934">
        <ele>43.88</ele>
        <time>2014-06-06T14:04:43Z</time>
      </trkpt>
      <trkpt lat="41.47706" lon="9.26934">
        <ele>41.95</ele>
        <time>2014-06-06T14:04:44Z</time>
      </trkpt>
      <trkpt lat="41.47701" lon="9.26931">
        <ele>40.99</ele>
        <time>2014-06-06T14:04:45Z</time>
      </trkpt>
      <trkpt lat="41.47697" lon="9.26927">
        <ele>40.51</ele>
        <time>2014-06-06T14:04:46Z</time>
      </trkpt>
      <trkpt lat="41.47692" lon="9.26921">
        <ele>39.55</ele>
        <time>2014-06-06T14:04:47Z</time>
      </trkpt>
      <trkpt lat="41.47688" lon="9.26914">
        <ele>38.59</ele>
        <time>2014-06-06T14:04:48Z</time>
      </trkpt>
      <trkpt lat="41.47685" lon="9.26905">
        <ele>37.15</ele>
        <time>2014-06-06T14:04:49Z</time>
      </trkpt>
      <trkpt lat="41.47681" lon="9.26897">
        <ele>36.19</ele>
        <time>2014-06-06T14:04:50Z</time>
      </trkpt>
      <trkpt lat="41.47678" lon="9.26889">
        <ele>36.19</ele>
        <time>2014-06-06T14:04:51Z</time>
      </trkpt>
      <trkpt lat="41.47674" lon="9.26883">
        <ele>35.71</ele>
        <time>2014-06-06T14:04:52Z</time>
      </trkpt>
      <trkpt lat="41.47669" lon="9.26879">
        <ele>35.23</ele>
        <time>2014-06-06T14:04:53Z</time>
      </trkpt>
      <trkpt lat="41.47662" lon="9.26876">
        <ele>34.26</ele>
        <time>2014-06-06T14:04:54Z</time>
      </trkpt>
      <trkpt lat="41.47654" lon="9.26874">
        <ele>33.3</ele>
        <time>2014-06-06T14:04:55Z</time>
      </trkpt>
      <trkpt lat="41.47645" lon="9.26873">
        <ele>32.34</ele>
        <time>2014-06-06T14:04:56Z</time>
      </trkpt>
      <trkpt lat="41.47635" lon="9.26872">
        <ele>30.9</ele>
        <time>2014-06-06T14:04:57Z</time>
      </trkpt>
      <trkpt lat="41.47625" lon="9.26872">
        <ele>30.42</ele>
        <time>2014-06-06T14:04:58Z</time>
      </trkpt>
      <trkpt lat="41.47616" lon="9.26873">
        <ele>29.94</ele>
        <time>2014-06-06T14:04:59Z</time>
      </trkpt>
      <trkpt lat="41.47607" lon="9.26874">
        <ele>28.98</ele>
        <time>2014-06-06T14:05:00Z</time>
      </trkpt>
      <trkpt lat="41.47572" lon="9.2688">
        <ele>26.57</ele>
        <time>2014-06-06T14:05:05Z</time>
      </trkpt>
      <trkpt lat="41.47566" lon="9.26878">
        <ele>25.13</ele>
        <time>2014-06-06T14:05:06Z</time>
      </trkpt>
      <trkpt lat="41.4756" lon="9.26876">
        <ele>24.17</ele>
        <time>2014-06-06T14:05:07Z</time>
      </trkpt>
      <trkpt lat="41.47539" lon="9.26862">
        <ele>22.73</ele>
        <time>2014-06-06T14:05:10Z</time>
      </trkpt>
      <trkpt lat="41.47533" lon="9.26855">
        <ele>23.21</ele>
        <time>2014-06-06T14:05:11Z</time>
      </trkpt>
      <trkpt lat="41.47529" lon="9.26847">
        <ele>22.25</ele>
        <time>2014-06-06T14:05:12Z</time>
      </trkpt>
      <trkpt lat="41.47527" lon="9.26838">
        <ele>22.25</ele>
        <time>2014-06-06T14:05:13Z</time>
      </trkpt>
      <trkpt lat="41.47526" lon="9.26828">
        <ele>22.25</ele>
        <time>2014-06-06T14:05:14Z</time>
      </trkpt>
      <trkpt lat="41.47526" lon="9.26818">
        <ele>22.73</ele>
        <time>2014-06-06T14:05:15Z</time>
      </trkpt>
      <trkpt lat="41.47523" lon="9.26798">
        <ele>23.21</ele>
        <time>2014-06-06T14:05:17Z</time>
      </trkpt>
      <trkpt lat="41.47511" lon="9.26735">
        <ele>20.32</ele>
        <time>2014-06-06T14:05:23Z</time>
      </trkpt>
      <trkpt lat="41.47512" lon="9.26724">
        <ele>19.84</ele>
        <time>2014-06-06T14:05:24Z</time>
      </trkpt>
      <trkpt lat="41.47513" lon="9.26712">
        <ele>19.84</ele>
        <time>2014-06-06T14:05:25Z</time>
      </trkpt>
      <trkpt lat="41.47517" lon="9.26701">
        <ele>19.84</ele>
        <time>2014-06-06T14:05:26Z</time>
      </trkpt>
      <trkpt lat="41.47521" lon="9.2669">
        <ele>19.84</ele>
        <time>2014-06-06T14:05:27Z</time>
      </trkpt>
      <trkpt lat="41.47526" lon="9.26681">
        <ele>18.88</ele>
        <time>2014-06-06T14:05:28Z</time>
      </trkpt>
      <trkpt lat="41.47532" lon="9.2667">
        <ele>18.88</ele>
        <time>2014-06-06T14:05:29Z</time>
      </trkpt>
      <trkpt lat="41.47536" lon="9.2666">
        <ele>18.4</ele>
        <time>2014-06-06T14:05:30Z</time>
      </trkpt>
      <trkpt lat="41.47538" lon="9.26649">
        <ele>18.4</ele>
        <time>2014-06-06T14:05:31Z</time>
      </trkpt>
      <trkpt lat="41.47538" lon="9.26637">
        <ele>18.4</ele>
        <time>2014-06-06T14:05:32Z</time>
      </trkpt>
      <trkpt lat="41.47536" lon="9.26604">
        <ele>19.36</ele>
        <time>2014-06-06T14:05:35Z</time>
      </trkpt>
      <trkpt lat="41.47537" lon="9.26594">
        <ele>19.36</ele>
        <time>2014-06-06T14:05:36Z</time>
      </trkpt>
      <trkpt lat="41.47539" lon="9.26585">
        <ele>19.36</ele>
        <time>2014-06-06T14:05:37Z</time>
      </trkpt>
      <trkpt lat="41.47542" lon="9.26577">
        <ele>19.36</ele>
        <time>2014-06-06T14:05:38Z</time>
      </trkpt>
      <trkpt lat="41.47546" lon="9.26569">
        <ele>19.36</ele>
        <time>2014-06-06T14:05:39Z</time>
      </trkpt>
      <trkpt lat="41.4755" lon="9.26562">
        <ele>19.36</ele>
        <time>2014-06-06T14:05:40Z</time>
      </trkpt>
      <trkpt lat="41.47553" lon="9.26556">
        <ele>19.36</ele>
        <time>2014-06-06T14:05:41Z</time>
      </trkpt>
      <trkpt lat="41.47554" lon="9.2655">
        <ele>18.88</ele>
        <time>2014-06-06T14:05:42Z</time>
      </trkpt>
      <trkpt lat="41.47553" lon="9.26545">
        <ele>18.4</ele>
        <time>2014-06-06T14:05:43Z</time>
      </trkpt>
      <trkpt lat="41.47551" lon="9.26541">
        <ele>17.92</ele>
        <time>2014-06-06T14:05:44Z</time>
      </trkpt>
      <trkpt lat="41.47547" lon="9.26538">
        <ele>17.44</ele>
        <time>2014-06-06T14:05:45Z</time>
      </trkpt>
      <trkpt lat="41.47541" lon="9.26537">
        <ele>17.44</ele>
        <time>2014-06-06T14:05:46Z</time>
      </trkpt>
      <trkpt lat="41.47536" lon="9.26538">
        <ele>16.96</ele>
        <time>2014-06-06T14:05:47Z</time>
      </trkpt>
      <trkpt lat="41.4753" lon="9.26541">
        <ele>16.48</ele>
        <time>2014-06-06T14:05:48Z</time>
      </trkpt>
      <trkpt lat="41.47524" lon="9.26544">
        <ele>16.48</ele>
        <time>2014-06-06T14:05:49Z</time>
      </trkpt>
      <trkpt lat="41.47503" lon="9.26551">
        <ele>14.56</ele>
        <time>2014-06-06T14:05:52Z</time>
      </trkpt>
      <trkpt lat="41.47496" lon="9.26552">
        <ele>14.08</ele>
        <time>2014-06-06T14:05:53Z</time>
      </trkpt>
      <trkpt lat="41.47488" lon="9.26552">
        <ele>13.6</ele>
        <time>2014-06-06T14:05:54Z</time>
      </trkpt>
      <trkpt lat="41.47477" lon="9.26549">
        <ele>12.63</ele>
        <time>2014-06-06T14:05:55Z</time>
      </trkpt>
      <trkpt lat="41.47466" lon="9.26544">
        <ele>12.63</ele>
        <time>2014-06-06T14:05:56Z</time>
      </trkpt>
      <trkpt lat="41.47456" lon="9.26538">
        <ele>12.15</ele>
        <time>2014-06-06T14:05:57Z</time>
      </trkpt>
      <trkpt lat="41.47426" lon="9.26523">
        <ele>11.67</ele>
        <time>2014-06-06T14:06:00Z</time>
      </trkpt>
      <trkpt lat="41.47418" lon="9.26514">
        <ele>12.15</ele>
        <time>2014-06-06T14:06:01Z</time>
      </trkpt>
      <trkpt lat="41.4741" lon="9.26503">
        <ele>12.15</ele>
        <time>2014-06-06T14:06:02Z</time>
      </trkpt>
      <trkpt lat="41.47402" lon="9.26489">
        <ele>14.08</ele>
        <time>2014-06-06T14:06:03Z</time>
      </trkpt>
      <trkpt lat="41.47394" lon="9.26475">
        <ele>15.04</ele>
        <time>2014-06-06T14:06:04Z</time>
      </trkpt>
      <trkpt lat="41.47381" lon="9.26448">
        <ele>17.44</ele>
        <time>2014-06-06T14:06:06Z</time>
      </trkpt>
      <trkpt lat="41.47377" lon="9.26435">
        <ele>18.4</ele>
        <time>2014-06-06T14:06:07Z</time>
      </trkpt>
      <trkpt lat="41.47373" lon="9.26423">
        <ele>19.36</ele>
        <time>2014-06-06T14:06:08Z</time>
      </trkpt>
      <trkpt lat="41.47363" lon="9.26389">
        <ele>20.81</ele>
        <time>2014-06-06T14:06:13Z</time>
      </trkpt>
      <trkpt lat="41.47359" lon="9.26386">
        <ele>21.29</ele>
        <time>2014-06-06T14:06:14Z</time>
      </trkpt>
      <trkpt lat="41.47354" lon="9.26386">
        <ele>21.29</ele>
        <time>2014-06-06T14:06:15Z</time>
      </trkpt>
      <trkpt lat="41.47349" lon="9.26386">
        <ele>21.29</ele>
        <time>2014-06-06T14:06:16Z</time>
      </trkpt>
      <trkpt lat="41.47343" lon="9.26388">
        <ele>21.77</ele>
        <time>2014-06-06T14:06:17Z</time>
      </trkpt>
      <trkpt lat="41.47336" lon="9.26391">
        <ele>21.77</ele>
        <time>2014-06-06T14:06:18Z</time>
      </trkpt>
      <trkpt lat="41.4733" lon="9.26395">
        <ele>21.77</ele>
        <time>2014-06-06T14:06:19Z</time>
      </trkpt>
      <trkpt lat="41.47323" lon="9.264">
        <ele>21.77</ele>
        <time>2014-06-06T14:06:20Z</time>
      </trkpt>
      <trkpt lat="41.47298" lon="9.26425">
        <ele>22.73</ele>
        <time>2014-06-06T14:06:26Z</time>
      </trkpt>
      <trkpt lat="41.47295" lon="9.26427">
        <ele>22.73</ele>
        <time>2014-06-06T14:06:27Z</time>
      </trkpt>
      <trkpt lat="41.47291" lon="9.26427">
        <ele>22.25</ele>
        <time>2014-06-06T14:06:28Z</time>
      </trkpt>
      <trkpt lat="41.47287" lon="9.26425">
        <ele>22.25</ele>
        <time>2014-06-06T14:06:29Z</time>
      </trkpt>
      <trkpt lat="41.47284" lon="9.2642">
        <ele>22.73</ele>
        <time>2014-06-06T14:06:30Z</time>
      </trkpt>
      <trkpt lat="41.47281" lon="9.26415">
        <ele>22.25</ele>
        <time>2014-06-06T14:06:31Z</time>
      </trkpt>
      <trkpt lat="41.47278" lon="9.26408">
        <ele>22.25</ele>
        <time>2014-06-06T14:06:32Z</time>
      </trkpt>
      <trkpt lat="41.47263" lon="9.26385">
        <ele>21.77</ele>
        <time>2014-06-06T14:06:35Z</time>
      </trkpt>
      <trkpt lat="41.47256" lon="9.26378">
        <ele>21.29</ele>
        <time>2014-06-06T14:06:36Z</time>
      </trkpt>
      <trkpt lat="41.47248" lon="9.26372">
        <ele>21.29</ele>
        <time>2014-06-06T14:06:37Z</time>
      </trkpt>
      <trkpt lat="41.4724" lon="9.26366">
        <ele>20.81</ele>
        <time>2014-06-06T14:06:38Z</time>
      </trkpt>
      <trkpt lat="41.47231" lon="9.26361">
        <ele>20.81</ele>
        <time>2014-06-06T14:06:39Z</time>
      </trkpt>
      <trkpt lat="41.47223" lon="9.26356">
        <ele>20.32</ele>
        <time>2014-06-06T14:06:40Z</time>
      </trkpt>
      <trkpt lat="41.47174" lon="9.26345">
        <ele>16.96</ele>
        <time>2014-06-06T14:06:46Z</time>
      </trkpt>
      <trkpt lat="41.47168" lon="9.26347">
        <ele>16.48</ele>
        <time>2014-06-06T14:06:47Z</time>
      </trkpt>
      <trkpt lat="41.47161" lon="9.26352">
        <ele>16</ele>
        <time>2014-06-06T14:06:48Z</time>
      </trkpt>
      <trkpt lat="41.47156" lon="9.26358">
        <ele>15.52</ele>
        <time>2014-06-06T14:06:49Z</time>
      </trkpt>
      <trkpt lat="41.47151" lon="9.26365">
        <ele>15.04</ele>
        <time>2014-06-06T14:06:50Z</time>
      </trkpt>
      <trkpt lat="41.47148" lon="9.26372">
        <ele>14.56</ele>
        <time>2014-06-06T14:06:51Z</time>
      </trkpt>
      <trkpt lat="41.47148" lon="9.2638">
        <ele>13.6</ele>
        <time>2014-06-06T14:06:52Z</time>
      </trkpt>
      <trkpt lat="41.47149" lon="9.26389">
        <ele>14.08</ele>
        <time>2014-06-06T14:06:53Z</time>
      </trkpt>
      <trkpt lat="41.47152" lon="9.26397">
        <ele>13.6</ele>
        <time>2014-06-06T14:06:54Z</time>
      </trkpt>
      <trkpt lat="41.47154" lon="9.26406">
        <ele>13.12</ele>
        <time>2014-06-06T14:06:55Z</time>
      </trkpt>
      <trkpt lat="41.47157" lon="9.26417">
        <ele>12.63</ele>
        <time>2014-06-06T14:06:56Z</time>
      </trkpt>
      <trkpt lat="41.47158" lon="9.26427">
        <ele>11.67</ele>
        <time>2014-06-06T14:06:57Z</time>
      </trkpt>
      <trkpt lat="41.47159" lon="9.26438">
        <ele>10.71</ele>
        <time>2014-06-06T14:06:58Z</time>
      </trkpt>
      <trkpt lat="41.47164" lon="9.26488">
        <ele>8.31</ele>
        <time>2014-06-06T14:07:03Z</time>
      </trkpt>
      <trkpt lat="41.47162" lon="9.26497">
        <ele>7.83</ele>
        <time>2014-06-06T14:07:04Z</time>
      </trkpt>
      <trkpt lat="41.47158" lon="9.26504">
        <ele>7.35</ele>
        <time>2014-06-06T14:07:05Z</time>
      </trkpt>
      <trkpt lat="41.47154" lon="9.2651">
        <ele>6.87</ele>
        <time>2014-06-06T14:07:06Z</time>
      </trkpt>
      <trkpt lat="41.47149" lon="9.26516">
        <ele>5.91</ele>
        <time>2014-06-06T14:07:07Z</time>
      </trkpt>
      <trkpt lat="41.47141" lon="9.26527">
        <ele>4.94</ele>
        <time>2014-06-06T14:07:09Z</time>
      </trkpt>
      <trkpt lat="41.47134" lon="9.26538">
        <ele>3.5</ele>
        <time>2014-06-06T14:07:11Z</time>
      </trkpt>
      <trkpt lat="41.47126" lon="9.2655">
        <ele>2.06</ele>
        <time>2014-06-06T14:07:14Z</time>
      </trkpt>
      <trkpt lat="41.47122" lon="9.2655">
        <ele>1.58</ele>
        <time>2014-06-06T14:07:15Z</time>
      </trkpt>
      <trkpt lat="41.47119" lon="9.26549">
        <ele>0.14</ele>
        <time>2014-06-06T14:07:16Z</time>
      </trkpt>
      <trkpt lat="41.47117" lon="9.26544">
        <ele>-0.34</ele>
        <time>2014-06-06T14:07:17Z</time>
      </trkpt>
      <trkpt lat="41.47115" lon="9.26537">
        <ele>-0.82</ele>
        <time>2014-06-06T14:07:18Z</time>
      </trkpt>
      <trkpt lat="41.47116" lon="9.26529">
        <ele>-0.82</ele>
        <time>2014-06-06T14:07:19Z</time>
      </trkpt>
      <trkpt lat="41.47117" lon="9.2652">
        <ele>-1.3</ele>
        <time>2014-06-06T14:07:20Z</time>
      </trkpt>
      <trkpt lat="41.47116" lon="9.26494">
        <ele>-2.75</ele>
        <time>2014-06-06T14:07:23Z</time>
      </trkpt>
      <trkpt lat="41.47113" lon="9.26484">
        <ele>-2.75</ele>
        <time>2014-06-06T14:07:24Z</time>
      </trkpt>
      <trkpt lat="41.47104" lon="9.26457">
        <ele>-3.71</ele>
        <time>2014-06-06T14:07:27Z</time>
      </trkpt>
      <trkpt lat="41.47104" lon="9.26445">
        <ele>-4.19</ele>
        <time>2014-06-06T14:07:28Z</time>
      </trkpt>
      <trkpt lat="41.47104" lon="9.26431">
        <ele>-3.71</ele>
        <time>2014-06-06T14:07:29Z</time>
      </trkpt>
      <trkpt lat="41.47109" lon="9.26381">
        <ele>-4.67</ele>
        <time>2014-06-06T14:07:33Z</time>
      </trkpt>
      <trkpt lat="41.47108" lon="9.26371">
        <ele>-4.19</ele>
        <time>2014-06-06T14:07:34Z</time>
      </trkpt>
      <trkpt lat="41.47105" lon="9.26362">
        <ele>-4.67</ele>
        <time>2014-06-06T14:07:35Z</time>
      </trkpt>
      <trkpt lat="41.47102" lon="9.26352">
        <ele>-4.67</ele>
        <time>2014-06-06T14:07:36Z</time>
      </trkpt>
      <trkpt lat="41.47096" lon="9.26343">
        <ele>-4.67</ele>
        <time>2014-06-06T14:07:37Z</time>
      </trkpt>
      <trkpt lat="41.47089" lon="9.26334">
        <ele>-4.67</ele>
        <time>2014-06-06T14:07:38Z</time>
      </trkpt>
      <trkpt lat="41.4708" lon="9.26326">
        <ele>-5.15</ele>
        <time>2014-06-06T14:07:39Z</time>
      </trkpt>
      <trkpt lat="41.47072" lon="9.26321">
        <ele>-4.67</ele>
        <time>2014-06-06T14:07:40Z</time>
      </trkpt>
      <trkpt lat="41.47063" lon="9.26317">
        <ele>-4.19</ele>
        <time>2014-06-06T14:07:41Z</time>
      </trkpt>
      <trkpt lat="41.47055" lon="9.26314">
        <ele>-4.19</ele>
        <time>2014-06-06T14:07:42Z</time>
      </trkpt>
      <trkpt lat="41.47043" lon="9.26305">
        <ele>-4.19</ele>
        <time>2014-06-06T14:07:44Z</time>
      </trkpt>
      <trkpt lat="41.47039" lon="9.263">
        <ele>-4.19</ele>
        <time>2014-06-06T14:07:45Z</time>
      </trkpt>
      <trkpt lat="41.47036" lon="9.26293">
        <ele>-3.71</ele>
        <time>2014-06-06T14:07:46Z</time>
      </trkpt>
      <trkpt lat="41.47034" lon="9.26285">
        <ele>-5.15</ele>
        <time>2014-06-06T14:07:47Z</time>
      </trkpt>
      <trkpt lat="41.47032" lon="9.26277">
        <ele>-5.63</ele>
        <time>2014-06-06T14:07:48Z</time>
      </trkpt>
      <trkpt lat="41.47028" lon="9.26261">
        <ele>-5.15</ele>
        <time>2014-06-06T14:07:50Z</time>
      </trkpt>
      <trkpt lat="41.47024" lon="9.26256">
        <ele>-6.11</ele>
        <time>2014-06-06T14:07:51Z</time>
      </trkpt>
      <trkpt lat="41.47019" lon="9.26254">
        <ele>-7.07</ele>
        <time>2014-06-06T14:07:52Z</time>
      </trkpt>
      <trkpt lat="41.47014" lon="9.26255">
        <ele>-7.55</ele>
        <time>2014-06-06T14:07:53Z</time>
      </trkpt>
      <trkpt lat="41.47009" lon="9.26258">
        <ele>-8.51</ele>
        <time>2014-06-06T14:07:54Z</time>
      </trkpt>
      <trkpt lat="41.47005" lon="9.26263">
        <ele>-9</ele>
        <time>2014-06-06T14:07:55Z</time>
      </trkpt>
      <trkpt lat="41.47001" lon="9.26271">
        <ele>-9.48</ele>
        <time>2014-06-06T14:07:56Z</time>
      </trkpt>
      <trkpt lat="41.46999" lon="9.26282">
        <ele>-9.96</ele>
        <time>2014-06-06T14:07:57Z</time>
      </trkpt>
      <trkpt lat="41.46996" lon="9.26295">
        <ele>-9.48</ele>
        <time>2014-06-06T14:07:58Z</time>
      </trkpt>
      <trkpt lat="41.46994" lon="9.2631">
        <ele>-6.11</ele>
        <time>2014-06-06T14:07:59Z</time>
      </trkpt>
      <trkpt lat="41.46988" lon="9.26345">
        <ele>-3.71</ele>
        <time>2014-06-06T14:08:01Z</time>
      </trkpt>
      <trkpt lat="41.46967" lon="9.26421">
        <ele>1.1</ele>
        <time>2014-06-06T14:08:06Z</time>
      </trkpt>
      <trkpt lat="41.4696" lon="9.26454">
        <ele>2.06</ele>
        <time>2014-06-06T14:08:09Z</time>
      </trkpt>
      <trkpt lat="41.46956" lon="9.26462">
        <ele>2.54</ele>
        <time>2014-06-06T14:08:10Z</time>
      </trkpt>
      <trkpt lat="41.46951" lon="9.26469">
        <ele>3.02</ele>
        <time>2014-06-06T14:08:11Z</time>
      </trkpt>
      <trkpt lat="41.46945" lon="9.26475">
        <ele>3.5</ele>
        <time>2014-06-06T14:08:12Z</time>
      </trkpt>
      <trkpt lat="41.4694" lon="9.26482">
        <ele>3.5</ele>
        <time>2014-06-06T14:08:13Z</time>
      </trkpt>
      <trkpt lat="41.46928" lon="9.26493">
        <ele>3.98</ele>
        <time>2014-06-06T14:08:15Z</time>
      </trkpt>
      <trkpt lat="41.46922" lon="9.26496">
        <ele>4.46</ele>
        <time>2014-06-06T14:08:16Z</time>
      </trkpt>
      <trkpt lat="41.46914" lon="9.26498">
        <ele>4.46</ele>
        <time>2014-06-06T14:08:17Z</time>
      </trkpt>
      <trkpt lat="41.46905" lon="9.26498">
        <ele>3.98</ele>
        <time>2014-06-06T14:08:18Z</time>
      </trkpt>
      <trkpt lat="41.46895" lon="9.26498">
        <ele>3.5</ele>
        <time>2014-06-06T14:08:19Z</time>
      </trkpt>
      <trkpt lat="41.46868" lon="9.26497">
        <ele>2.54</ele>
        <time>2014-06-06T14:08:22Z</time>
      </trkpt>
      <trkpt lat="41.46861" lon="9.26493">
        <ele>2.06</ele>
        <time>2014-06-06T14:08:23Z</time>
      </trkpt>
      <trkpt lat="41.46856" lon="9.26488">
        <ele>1.1</ele>
        <time>2014-06-06T14:08:24Z</time>
      </trkpt>
      <trkpt lat="41.46835" lon="9.26465">
        <ele>-0.34</ele>
        <time>2014-06-06T14:08:28Z</time>
      </trkpt>
      <trkpt lat="41.46829" lon="9.26465">
        <ele>-0.82</ele>
        <time>2014-06-06T14:08:29Z</time>
      </trkpt>
      <trkpt lat="41.46824" lon="9.26467">
        <ele>-1.3</ele>
        <time>2014-06-06T14:08:30Z</time>
      </trkpt>
      <trkpt lat="41.46819" lon="9.2647">
        <ele>-1.79</ele>
        <time>2014-06-06T14:08:31Z</time>
      </trkpt>
      <trkpt lat="41.46814" lon="9.26473">
        <ele>-2.27</ele>
        <time>2014-06-06T14:08:32Z</time>
      </trkpt>
      <trkpt lat="41.46808" lon="9.26476">
        <ele>-2.27</ele>
        <time>2014-06-06T14:08:33Z</time>
      </trkpt>
      <trkpt lat="41.46802" lon="9.26478">
        <ele>-3.71</ele>
        <time>2014-06-06T14:08:34Z</time>
      </trkpt>
      <trkpt lat="41.46796" lon="9.26478">
        <ele>-4.19</ele>
        <time>2014-06-06T14:08:35Z</time>
      </trkpt>
      <trkpt lat="41.46791" lon="9.26477">
        <ele>-3.23</ele>
        <time>2014-06-06T14:08:36Z</time>
      </trkpt>
      <trkpt lat="41.46786" lon="9.26476">
        <ele>-3.71</ele>
        <time>2014-06-06T14:08:37Z</time>
      </trkpt>
      <trkpt lat="41.46782" lon="9.26476">
        <ele>-4.19</ele>
        <time>2014-06-06T14:08:38Z</time>
      </trkpt>
      <trkpt lat="41.4676" lon="9.26472">
        <ele>-2.27</ele>
        <time>2014-06-06T14:08:49Z</time>
      </trkpt>
      <trkpt lat="41.46778" lon="9.26464">
        <ele>10.71</ele>
        <time>2014-06-06T16:01:47Z</time>
      </trkpt>
      <trkpt lat="41.46765" lon="9.2646">
        <ele>12.15</ele>
        <time>2014-06-06T16:02:17Z</time>
      </trkpt>
      <trkpt lat="41.46765" lon="9.26463">
        <ele>10.71</ele>
        <time>2014-06-06T16:02:50Z</time>
      </trkpt>
      <trkpt lat="41.46765" lon="9.26464">
        <ele>10.23</ele>
        <time>2014-06-06T16:03:06Z</time>
      </trkpt>
      <trkpt lat="41.46765" lon="9.26464">
        <ele>10.23</ele>
        <time>2014-06-06T16:03:18Z</time>
      </trkpt>
      <trkpt lat="41.46766" lon="9.26457">
        <ele>9.75</ele>
        <time>2014-06-06T16:03:21Z</time>
      </trkpt>
      <trkpt lat="41.46751" lon="9.26458">
        <ele>7.35</ele>
        <time>2014-06-06T16:03:29Z</time>
      </trkpt>
      <trkpt lat="41.4675" lon="9.26464">
        <ele>6.87</ele>
        <time>2014-06-06T16:03:34Z</time>
      </trkpt>
      <trkpt lat="41.46752" lon="9.26474">
        <ele>7.83</ele>
        <time>2014-06-06T16:03:38Z</time>
      </trkpt>
      <trkpt lat="41.46755" lon="9.26478">
        <ele>5.42</ele>
        <time>2014-06-06T16:03:53Z</time>
      </trkpt>
      <trkpt lat="41.46758" lon="9.26478">
        <ele>5.42</ele>
        <time>2014-06-06T16:03:57Z</time>
      </trkpt>
      <trkpt lat="41.46773" lon="9.26474">
        <ele>5.91</ele>
        <time>2014-06-06T16:04:00Z</time>
      </trkpt>
      <trkpt lat="41.46782" lon="9.26474">
        <ele>5.91</ele>
        <time>2014-06-06T16:04:01Z</time>
      </trkpt>
      <trkpt lat="41.46812" lon="9.26474">
        <ele>6.39</ele>
        <time>2014-06-06T16:04:04Z</time>
      </trkpt>
      <trkpt lat="41.46821" lon="9.26469">
        <ele>6.39</ele>
        <time>2014-06-06T16:04:05Z</time>
      </trkpt>
      <trkpt lat="41.46834" lon="9.26461">
        <ele>5.42</ele>
        <time>2014-06-06T16:04:07Z</time>
      </trkpt>
      <trkpt lat="41.4684" lon="9.26461">
        <ele>5.42</ele>
        <time>2014-06-06T16:04:08Z</time>
      </trkpt>
      <trkpt lat="41.46845" lon="9.26463">
        <ele>5.42</ele>
        <time>2014-06-06T16:04:09Z</time>
      </trkpt>
      <trkpt lat="41.46849" lon="9.26468">
        <ele>5.42</ele>
        <time>2014-06-06T16:04:10Z</time>
      </trkpt>
      <trkpt lat="41.46854" lon="9.26473">
        <ele>4.94</ele>
        <time>2014-06-06T16:04:11Z</time>
      </trkpt>
      <trkpt lat="41.46858" lon="9.26479">
        <ele>5.42</ele>
        <time>2014-06-06T16:04:12Z</time>
      </trkpt>
      <trkpt lat="41.46867" lon="9.26489">
        <ele>6.87</ele>
        <time>2014-06-06T16:04:14Z</time>
      </trkpt>
      <trkpt lat="41.46874" lon="9.26491">
        <ele>6.87</ele>
        <time>2014-06-06T16:04:15Z</time>
      </trkpt>
      <trkpt lat="41.46881" lon="9.26492">
        <ele>7.35</ele>
        <time>2014-06-06T16:04:16Z</time>
      </trkpt>
      <trkpt lat="41.46888" lon="9.26492">
        <ele>7.35</ele>
        <time>2014-06-06T16:04:17Z</time>
      </trkpt>
      <trkpt lat="41.46895" lon="9.26492">
        <ele>7.83</ele>
        <time>2014-06-06T16:04:18Z</time>
      </trkpt>
      <trkpt lat="41.46924" lon="9.26488">
        <ele>9.27</ele>
        <time>2014-06-06T16:04:22Z</time>
      </trkpt>
      <trkpt lat="41.46931" lon="9.26485">
        <ele>9.27</ele>
        <time>2014-06-06T16:04:23Z</time>
      </trkpt>
      <trkpt lat="41.46936" lon="9.26479">
        <ele>9.27</ele>
        <time>2014-06-06T16:04:24Z</time>
      </trkpt>
      <trkpt lat="41.46941" lon="9.26474">
        <ele>9.27</ele>
        <time>2014-06-06T16:04:25Z</time>
      </trkpt>
      <trkpt lat="41.46945" lon="9.26469">
        <ele>9.27</ele>
        <time>2014-06-06T16:04:26Z</time>
      </trkpt>
      <trkpt lat="41.46957" lon="9.26453">
        <ele>9.75</ele>
        <time>2014-06-06T16:04:29Z</time>
      </trkpt>
      <trkpt lat="41.46961" lon="9.26445">
        <ele>9.75</ele>
        <time>2014-06-06T16:04:30Z</time>
      </trkpt>
      <trkpt lat="41.46965" lon="9.26437">
        <ele>9.27</ele>
        <time>2014-06-06T16:04:31Z</time>
      </trkpt>
      <trkpt lat="41.46967" lon="9.26427">
        <ele>9.27</ele>
        <time>2014-06-06T16:04:32Z</time>
      </trkpt>
      <trkpt lat="41.46969" lon="9.26417">
        <ele>8.79</ele>
        <time>2014-06-06T16:04:33Z</time>
      </trkpt>
      <trkpt lat="41.46974" lon="9.26396">
        <ele>7.35</ele>
        <time>2014-06-06T16:04:35Z</time>
      </trkpt>
      <trkpt lat="41.46996" lon="9.26323">
        <ele>2.06</ele>
        <time>2014-06-06T16:04:42Z</time>
      </trkpt>
      <trkpt lat="41.46998" lon="9.26313">
        <ele>1.58</ele>
        <time>2014-06-06T16:04:43Z</time>
      </trkpt>
      <trkpt lat="41.47007" lon="9.26266">
        <ele>-1.3</ele>
        <time>2014-06-06T16:04:48Z</time>
      </trkpt>
      <trkpt lat="41.47009" lon="9.26261">
        <ele>-1.79</ele>
        <time>2014-06-06T16:04:49Z</time>
      </trkpt>
      <trkpt lat="41.47012" lon="9.26257">
        <ele>-2.27</ele>
        <time>2014-06-06T16:04:50Z</time>
      </trkpt>
      <trkpt lat="41.47015" lon="9.26254">
        <ele>-2.75</ele>
        <time>2014-06-06T16:04:51Z</time>
      </trkpt>
      <trkpt lat="41.47019" lon="9.26251">
        <ele>-3.23</ele>
        <time>2014-06-06T16:04:52Z</time>
      </trkpt>
      <trkpt lat="41.47023" lon="9.26251">
        <ele>-3.23</ele>
        <time>2014-06-06T16:04:53Z</time>
      </trkpt>
      <trkpt lat="41.47027" lon="9.26253">
        <ele>-2.75</ele>
        <time>2014-06-06T16:04:54Z</time>
      </trkpt>
      <trkpt lat="41.4703" lon="9.26258">
        <ele>-2.27</ele>
        <time>2014-06-06T16:04:55Z</time>
      </trkpt>
      <trkpt lat="41.47032" lon="9.26265">
        <ele>-2.27</ele>
        <time>2014-06-06T16:04:56Z</time>
      </trkpt>
      <trkpt lat="41.47033" lon="9.26273">
        <ele>-1.79</ele>
        <time>2014-06-06T16:04:57Z</time>
      </trkpt>
      <trkpt lat="41.47036" lon="9.26288">
        <ele>-0.82</ele>
        <time>2014-06-06T16:04:59Z</time>
      </trkpt>
      <trkpt lat="41.47039" lon="9.26295">
        <ele>-1.3</ele>
        <time>2014-06-06T16:05:00Z</time>
      </trkpt>
      <trkpt lat="41.47042" lon="9.26301">
        <ele>-0.34</ele>
        <time>2014-06-06T16:05:01Z</time>
      </trkpt>
      <trkpt lat="41.47046" lon="9.26306">
        <ele>-0.82</ele>
        <time>2014-06-06T16:05:02Z</time>
      </trkpt>
      <trkpt lat="41.47052" lon="9.2631">
        <ele>-0.82</ele>
        <time>2014-06-06T16:05:03Z</time>
      </trkpt>
      <trkpt lat="41.47059" lon="9.26313">
        <ele>-0.34</ele>
        <time>2014-06-06T16:05:04Z</time>
      </trkpt>
      <trkpt lat="41.47066" lon="9.26316">
        <ele>-0.34</ele>
        <time>2014-06-06T16:05:05Z</time>
      </trkpt>
      <trkpt lat="41.4708" lon="9.26325">
        <ele>-0.34</ele>
        <time>2014-06-06T16:05:07Z</time>
      </trkpt>
      <trkpt lat="41.47093" lon="9.26337">
        <ele>-0.82</ele>
        <time>2014-06-06T16:05:09Z</time>
      </trkpt>
      <trkpt lat="41.47098" lon="9.26344">
        <ele>-0.82</ele>
        <time>2014-06-06T16:05:10Z</time>
      </trkpt>
      <trkpt lat="41.47102" lon="9.26352">
        <ele>-0.82</ele>
        <time>2014-06-06T16:05:11Z</time>
      </trkpt>
      <trkpt lat="41.47105" lon="9.2636">
        <ele>-0.82</ele>
        <time>2014-06-06T16:05:12Z</time>
      </trkpt>
      <trkpt lat="41.47107" lon="9.26367">
        <ele>-0.82</ele>
        <time>2014-06-06T16:05:13Z</time>
      </trkpt>
      <trkpt lat="41.47108" lon="9.26375">
        <ele>-0.82</ele>
        <time>2014-06-06T16:05:14Z</time>
      </trkpt>
      <trkpt lat="41.47108" lon="9.26384">
        <ele>-0.34</ele>
        <time>2014-06-06T16:05:15Z</time>
      </trkpt>
      <trkpt lat="41.47103" lon="9.26453">
        <ele>2.54</ele>
        <time>2014-06-06T16:05:22Z</time>
      </trkpt>
      <trkpt lat="41.47104" lon="9.26462">
        <ele>2.54</ele>
        <time>2014-06-06T16:05:23Z</time>
      </trkpt>
      <trkpt lat="41.47108" lon="9.26471">
        <ele>2.54</ele>
        <time>2014-06-06T16:05:24Z</time>
      </trkpt>
      <trkpt lat="41.47116" lon="9.26507">
        <ele>3.02</ele>
        <time>2014-06-06T16:05:28Z</time>
      </trkpt>
      <trkpt lat="41.47115" lon="9.26516">
        <ele>3.5</ele>
        <time>2014-06-06T16:05:29Z</time>
      </trkpt>
      <trkpt lat="41.47111" lon="9.26536">
        <ele>5.42</ele>
        <time>2014-06-06T16:05:32Z</time>
      </trkpt>
      <trkpt lat="41.47112" lon="9.26542">
        <ele>5.91</ele>
        <time>2014-06-06T16:05:33Z</time>
      </trkpt>
      <trkpt lat="41.47115" lon="9.26547">
        <ele>6.39</ele>
        <time>2014-06-06T16:05:34Z</time>
      </trkpt>
      <trkpt lat="41.47118" lon="9.26549">
        <ele>7.35</ele>
        <time>2014-06-06T16:05:35Z</time>
      </trkpt>
      <trkpt lat="41.47122" lon="9.26548">
        <ele>8.31</ele>
        <time>2014-06-06T16:05:36Z</time>
      </trkpt>
      <trkpt lat="41.47126" lon="9.26543">
        <ele>8.79</ele>
        <time>2014-06-06T16:05:37Z</time>
      </trkpt>
      <trkpt lat="41.47129" lon="9.26538">
        <ele>9.27</ele>
        <time>2014-06-06T16:05:38Z</time>
      </trkpt>
      <trkpt lat="41.47132" lon="9.26533">
        <ele>9.27</ele>
        <time>2014-06-06T16:05:39Z</time>
      </trkpt>
      <trkpt lat="41.47141" lon="9.2652">
        <ele>10.23</ele>
        <time>2014-06-06T16:05:41Z</time>
      </trkpt>
      <trkpt lat="41.47146" lon="9.26513">
        <ele>11.19</ele>
        <time>2014-06-06T16:05:42Z</time>
      </trkpt>
      <trkpt lat="41.47156" lon="9.26501">
        <ele>12.63</ele>
        <time>2014-06-06T16:05:44Z</time>
      </trkpt>
      <trkpt lat="41.47159" lon="9.26495">
        <ele>13.6</ele>
        <time>2014-06-06T16:05:45Z</time>
      </trkpt>
      <trkpt lat="41.47161" lon="9.26487">
        <ele>15.04</ele>
        <time>2014-06-06T16:05:46Z</time>
      </trkpt>
      <trkpt lat="41.47162" lon="9.26479">
        <ele>16</ele>
        <time>2014-06-06T16:05:47Z</time>
      </trkpt>
      <trkpt lat="41.47162" lon="9.26469">
        <ele>16.48</ele>
        <time>2014-06-06T16:05:48Z</time>
      </trkpt>
      <trkpt lat="41.47162" lon="9.26458">
        <ele>16.48</ele>
        <time>2014-06-06T16:05:49Z</time>
      </trkpt>
      <trkpt lat="41.47161" lon="9.26447">
        <ele>16.48</ele>
        <time>2014-06-06T16:05:50Z</time>
      </trkpt>
      <trkpt lat="41.47156" lon="9.26398">
        <ele>20.32</ele>
        <time>2014-06-06T16:05:55Z</time>
      </trkpt>
      <trkpt lat="41.47155" lon="9.2639">
        <ele>20.32</ele>
        <time>2014-06-06T16:05:56Z</time>
      </trkpt>
      <trkpt lat="41.47152" lon="9.26378">
        <ele>21.29</ele>
        <time>2014-06-06T16:05:58Z</time>
      </trkpt>
      <trkpt lat="41.47153" lon="9.26371">
        <ele>21.77</ele>
        <time>2014-06-06T16:05:59Z</time>
      </trkpt>
      <trkpt lat="41.47155" lon="9.26364">
        <ele>21.77</ele>
        <time>2014-06-06T16:06:00Z</time>
      </trkpt>
      <trkpt lat="41.47159" lon="9.26358">
        <ele>22.73</ele>
        <time>2014-06-06T16:06:01Z</time>
      </trkpt>
      <trkpt lat="41.47164" lon="9.26352">
        <ele>23.21</ele>
        <time>2014-06-06T16:06:02Z</time>
      </trkpt>
      <trkpt lat="41.4717" lon="9.26346">
        <ele>23.69</ele>
        <time>2014-06-06T16:06:03Z</time>
      </trkpt>
      <trkpt lat="41.47175" lon="9.26343">
        <ele>24.17</ele>
        <time>2014-06-06T16:06:04Z</time>
      </trkpt>
      <trkpt lat="41.47183" lon="9.26341">
        <ele>24.65</ele>
        <time>2014-06-06T16:06:05Z</time>
      </trkpt>
      <trkpt lat="41.47191" lon="9.26341">
        <ele>25.13</ele>
        <time>2014-06-06T16:06:06Z</time>
      </trkpt>
      <trkpt lat="41.472" lon="9.26343">
        <ele>25.13</ele>
        <time>2014-06-06T16:06:07Z</time>
      </trkpt>
      <trkpt lat="41.47209" lon="9.26346">
        <ele>25.61</ele>
        <time>2014-06-06T16:06:08Z</time>
      </trkpt>
      <trkpt lat="41.47218" lon="9.26349">
        <ele>26.09</ele>
        <time>2014-06-06T16:06:09Z</time>
      </trkpt>
      <trkpt lat="41.47265" lon="9.2638">
        <ele>28.5</ele>
        <time>2014-06-06T16:06:15Z</time>
      </trkpt>
      <trkpt lat="41.4727" lon="9.26388">
        <ele>28.98</ele>
        <time>2014-06-06T16:06:16Z</time>
      </trkpt>
      <trkpt lat="41.47275" lon="9.26395">
        <ele>29.46</ele>
        <time>2014-06-06T16:06:17Z</time>
      </trkpt>
      <trkpt lat="41.47279" lon="9.26401">
        <ele>29.94</ele>
        <time>2014-06-06T16:06:18Z</time>
      </trkpt>
      <trkpt lat="41.47282" lon="9.26408">
        <ele>30.42</ele>
        <time>2014-06-06T16:06:19Z</time>
      </trkpt>
      <trkpt lat="41.47288" lon="9.26418">
        <ele>30.42</ele>
        <time>2014-06-06T16:06:21Z</time>
      </trkpt>
      <trkpt lat="41.47292" lon="9.26422">
        <ele>30.42</ele>
        <time>2014-06-06T16:06:22Z</time>
      </trkpt>
      <trkpt lat="41.47297" lon="9.26423">
        <ele>30.42</ele>
        <time>2014-06-06T16:06:23Z</time>
      </trkpt>
      <trkpt lat="41.47302" lon="9.26421">
        <ele>30.42</ele>
        <time>2014-06-06T16:06:24Z</time>
      </trkpt>
      <trkpt lat="41.47308" lon="9.26417">
        <ele>30.42</ele>
        <time>2014-06-06T16:06:25Z</time>
      </trkpt>
      <trkpt lat="41.47314" lon="9.26412">
        <ele>29.94</ele>
        <time>2014-06-06T16:06:26Z</time>
      </trkpt>
      <trkpt lat="41.47319" lon="9.26407">
        <ele>29.46</ele>
        <time>2014-06-06T16:06:27Z</time>
      </trkpt>
      <trkpt lat="41.47335" lon="9.26393">
        <ele>28.02</ele>
        <time>2014-06-06T16:06:30Z</time>
      </trkpt>
      <trkpt lat="41.47341" lon="9.26389">
        <ele>27.53</ele>
        <time>2014-06-06T16:06:31Z</time>
      </trkpt>
      <trkpt lat="41.47347" lon="9.26385">
        <ele>27.53</ele>
        <time>2014-06-06T16:06:32Z</time>
      </trkpt>
      <trkpt lat="41.47353" lon="9.26383">
        <ele>27.05</ele>
        <time>2014-06-06T16:06:33Z</time>
      </trkpt>
      <trkpt lat="41.47359" lon="9.26383">
        <ele>26.09</ele>
        <time>2014-06-06T16:06:34Z</time>
      </trkpt>
      <trkpt lat="41.47364" lon="9.26385">
        <ele>26.09</ele>
        <time>2014-06-06T16:06:35Z</time>
      </trkpt>
      <trkpt lat="41.47368" lon="9.26389">
        <ele>25.61</ele>
        <time>2014-06-06T16:06:36Z</time>
      </trkpt>
      <trkpt lat="41.47371" lon="9.26395">
        <ele>25.13</ele>
        <time>2014-06-06T16:06:37Z</time>
      </trkpt>
      <trkpt lat="41.47373" lon="9.26403">
        <ele>25.13</ele>
        <time>2014-06-06T16:06:38Z</time>
      </trkpt>
      <trkpt lat="41.47375" lon="9.26412">
        <ele>24.65</ele>
        <time>2014-06-06T16:06:39Z</time>
      </trkpt>
      <trkpt lat="41.47377" lon="9.26422">
        <ele>24.17</ele>
        <time>2014-06-06T16:06:40Z</time>
      </trkpt>
      <trkpt lat="41.4738" lon="9.26432">
        <ele>24.17</ele>
        <time>2014-06-06T16:06:41Z</time>
      </trkpt>
      <trkpt lat="41.47424" lon="9.26515">
        <ele>17.92</ele>
        <time>2014-06-06T16:06:49Z</time>
      </trkpt>
      <trkpt lat="41.47431" lon="9.26521">
        <ele>17.92</ele>
        <time>2014-06-06T16:06:50Z</time>
      </trkpt>
      <trkpt lat="41.47439" lon="9.26526">
        <ele>17.44</ele>
        <time>2014-06-06T16:06:51Z</time>
      </trkpt>
      <trkpt lat="41.47486" lon="9.26549">
        <ele>17.92</ele>
        <time>2014-06-06T16:06:57Z</time>
      </trkpt>
      <trkpt lat="41.47494" lon="9.2655">
        <ele>17.92</ele>
        <time>2014-06-06T16:06:58Z</time>
      </trkpt>
      <trkpt lat="41.47502" lon="9.2655">
        <ele>18.4</ele>
        <time>2014-06-06T16:06:59Z</time>
      </trkpt>
      <trkpt lat="41.47511" lon="9.26548">
        <ele>18.4</ele>
        <time>2014-06-06T16:07:00Z</time>
      </trkpt>
      <trkpt lat="41.47519" lon="9.26545">
        <ele>18.4</ele>
        <time>2014-06-06T16:07:01Z</time>
      </trkpt>
      <trkpt lat="41.47526" lon="9.26542">
        <ele>18.4</ele>
        <time>2014-06-06T16:07:02Z</time>
      </trkpt>
      <trkpt lat="41.47539" lon="9.26535">
        <ele>17.92</ele>
        <time>2014-06-06T16:07:04Z</time>
      </trkpt>
      <trkpt lat="41.47544" lon="9.26534">
        <ele>18.4</ele>
        <time>2014-06-06T16:07:05Z</time>
      </trkpt>
      <trkpt lat="41.47548" lon="9.26533">
        <ele>18.4</ele>
        <time>2014-06-06T16:07:06Z</time>
      </trkpt>
      <trkpt lat="41.47551" lon="9.26535">
        <ele>18.4</ele>
        <time>2014-06-06T16:07:07Z</time>
      </trkpt>
      <trkpt lat="41.47554" lon="9.26538">
        <ele>18.4</ele>
        <time>2014-06-06T16:07:08Z</time>
      </trkpt>
      <trkpt lat="41.47555" lon="9.26542">
        <ele>18.88</ele>
        <time>2014-06-06T16:07:09Z</time>
      </trkpt>
      <trkpt lat="41.47554" lon="9.26547">
        <ele>18.88</ele>
        <time>2014-06-06T16:07:10Z</time>
      </trkpt>
      <trkpt lat="41.47552" lon="9.26552">
        <ele>19.36</ele>
        <time>2014-06-06T16:07:11Z</time>
      </trkpt>
      <trkpt lat="41.47549" lon="9.26558">
        <ele>19.36</ele>
        <time>2014-06-06T16:07:12Z</time>
      </trkpt>
      <trkpt lat="41.47546" lon="9.26565">
        <ele>19.84</ele>
        <time>2014-06-06T16:07:13Z</time>
      </trkpt>
      <trkpt lat="41.47539" lon="9.26578">
        <ele>20.81</ele>
        <time>2014-06-06T16:07:15Z</time>
      </trkpt>
      <trkpt lat="41.47536" lon="9.26586">
        <ele>22.25</ele>
        <time>2014-06-06T16:07:16Z</time>
      </trkpt>
      <trkpt lat="41.47535" lon="9.26596">
        <ele>22.25</ele>
        <time>2014-06-06T16:07:17Z</time>
      </trkpt>
      <trkpt lat="41.47534" lon="9.26606">
        <ele>23.21</ele>
        <time>2014-06-06T16:07:18Z</time>
      </trkpt>
      <trkpt lat="41.47535" lon="9.26617">
        <ele>23.21</ele>
        <time>2014-06-06T16:07:19Z</time>
      </trkpt>
      <trkpt lat="41.47536" lon="9.26629">
        <ele>23.69</ele>
        <time>2014-06-06T16:07:20Z</time>
      </trkpt>
      <trkpt lat="41.47536" lon="9.2664">
        <ele>22.73</ele>
        <time>2014-06-06T16:07:21Z</time>
      </trkpt>
      <trkpt lat="41.47536" lon="9.2665">
        <ele>22.73</ele>
        <time>2014-06-06T16:07:22Z</time>
      </trkpt>
      <trkpt lat="41.47534" lon="9.2666">
        <ele>23.21</ele>
        <time>2014-06-06T16:07:23Z</time>
      </trkpt>
      <trkpt lat="41.4753" lon="9.26669">
        <ele>23.69</ele>
        <time>2014-06-06T16:07:24Z</time>
      </trkpt>
      <trkpt lat="41.47525" lon="9.26678">
        <ele>23.21</ele>
        <time>2014-06-06T16:07:25Z</time>
      </trkpt>
      <trkpt lat="41.47516" lon="9.26696">
        <ele>24.65</ele>
        <time>2014-06-06T16:07:27Z</time>
      </trkpt>
      <trkpt lat="41.47513" lon="9.26706">
        <ele>24.65</ele>
        <time>2014-06-06T16:07:28Z</time>
      </trkpt>
      <trkpt lat="41.47511" lon="9.26717">
        <ele>25.13</ele>
        <time>2014-06-06T16:07:29Z</time>
      </trkpt>
      <trkpt lat="41.4751" lon="9.26728">
        <ele>25.13</ele>
        <time>2014-06-06T16:07:30Z</time>
      </trkpt>
      <trkpt lat="41.4751" lon="9.2674">
        <ele>25.61</ele>
        <time>2014-06-06T16:07:31Z</time>
      </trkpt>
      <trkpt lat="41.47511" lon="9.26751">
        <ele>26.09</ele>
        <time>2014-06-06T16:07:32Z</time>
      </trkpt>
      <trkpt lat="41.47513" lon="9.26763">
        <ele>26.09</ele>
        <time>2014-06-06T16:07:33Z</time>
      </trkpt>
      <trkpt lat="41.47515" lon="9.26775">
        <ele>26.57</ele>
        <time>2014-06-06T16:07:34Z</time>
      </trkpt>
      <trkpt lat="41.47518" lon="9.26786">
        <ele>26.57</ele>
        <time>2014-06-06T16:07:35Z</time>
      </trkpt>
      <trkpt lat="41.47526" lon="9.26816">
        <ele>25.61</ele>
        <time>2014-06-06T16:07:38Z</time>
      </trkpt>
      <trkpt lat="41.47527" lon="9.26824">
        <ele>26.09</ele>
        <time>2014-06-06T16:07:39Z</time>
      </trkpt>
      <trkpt lat="41.47532" lon="9.26852">
        <ele>26.09</ele>
        <time>2014-06-06T16:07:43Z</time>
      </trkpt>
      <trkpt lat="41.47537" lon="9.26857">
        <ele>25.61</ele>
        <time>2014-06-06T16:07:44Z</time>
      </trkpt>
      <trkpt lat="41.47543" lon="9.26862">
        <ele>25.13</ele>
        <time>2014-06-06T16:07:45Z</time>
      </trkpt>
      <trkpt lat="41.47562" lon="9.26875">
        <ele>25.61</ele>
        <time>2014-06-06T16:07:48Z</time>
      </trkpt>
      <trkpt lat="41.47568" lon="9.26877">
        <ele>25.61</ele>
        <time>2014-06-06T16:07:49Z</time>
      </trkpt>
      <trkpt lat="41.47575" lon="9.26878">
        <ele>26.09</ele>
        <time>2014-06-06T16:07:50Z</time>
      </trkpt>
      <trkpt lat="41.47583" lon="9.26878">
        <ele>27.53</ele>
        <time>2014-06-06T16:07:51Z</time>
      </trkpt>
      <trkpt lat="41.47591" lon="9.26876">
        <ele>28.02</ele>
        <time>2014-06-06T16:07:52Z</time>
      </trkpt>
      <trkpt lat="41.47599" lon="9.26874">
        <ele>28.5</ele>
        <time>2014-06-06T16:07:53Z</time>
      </trkpt>
      <trkpt lat="41.47673" lon="9.26876">
        <ele>30.9</ele>
        <time>2014-06-06T16:08:03Z</time>
      </trkpt>
      <trkpt lat="41.47677" lon="9.2688">
        <ele>31.86</ele>
        <time>2014-06-06T16:08:04Z</time>
      </trkpt>
      <trkpt lat="41.4768" lon="9.26886">
        <ele>31.86</ele>
        <time>2014-06-06T16:08:05Z</time>
      </trkpt>
      <trkpt lat="41.47698" lon="9.26921">
        <ele>36.67</ele>
        <time>2014-06-06T16:08:10Z</time>
      </trkpt>
      <trkpt lat="41.47702" lon="9.26925">
        <ele>37.15</ele>
        <time>2014-06-06T16:08:11Z</time>
      </trkpt>
      <trkpt lat="41.47706" lon="9.26928">
        <ele>38.11</ele>
        <time>2014-06-06T16:08:12Z</time>
      </trkpt>
      <trkpt lat="41.47712" lon="9.26928">
        <ele>38.59</ele>
        <time>2014-06-06T16:08:13Z</time>
      </trkpt>
      <trkpt lat="41.47718" lon="9.26926">
        <ele>39.07</ele>
        <time>2014-06-06T16:08:14Z</time>
      </trkpt>
      <trkpt lat="41.47724" lon="9.26922">
        <ele>39.55</ele>
        <time>2014-06-06T16:08:15Z</time>
      </trkpt>
      <trkpt lat="41.4773" lon="9.26915">
        <ele>40.51</ele>
        <time>2014-06-06T16:08:16Z</time>
      </trkpt>
      <trkpt lat="41.47735" lon="9.26908">
        <ele>40.99</ele>
        <time>2014-06-06T16:08:17Z</time>
      </trkpt>
      <trkpt lat="41.47738" lon="9.26901">
        <ele>41.95</ele>
        <time>2014-06-06T16:08:18Z</time>
      </trkpt>
      <trkpt lat="41.4774" lon="9.26895">
        <ele>42.44</ele>
        <time>2014-06-06T16:08:19Z</time>
      </trkpt>
      <trkpt lat="41.47743" lon="9.26887">
        <ele>42.44</ele>
        <time>2014-06-06T16:08:20Z</time>
      </trkpt>
      <trkpt lat="41.47754" lon="9.26865">
        <ele>45.32</ele>
        <time>2014-06-06T16:08:23Z</time>
      </trkpt>
      <trkpt lat="41.47759" lon="9.26858">
        <ele>46.76</ele>
        <time>2014-06-06T16:08:24Z</time>
      </trkpt>
      <trkpt lat="41.47765" lon="9.26853">
        <ele>48.2</ele>
        <time>2014-06-06T16:08:25Z</time>
      </trkpt>
      <trkpt lat="41.47771" lon="9.2685">
        <ele>49.65</ele>
        <time>2014-06-06T16:08:26Z</time>
      </trkpt>
      <trkpt lat="41.47776" lon="9.26847">
        <ele>50.61</ele>
        <time>2014-06-06T16:08:27Z</time>
      </trkpt>
      <trkpt lat="41.47785" lon="9.26837">
        <ele>52.05</ele>
        <time>2014-06-06T16:08:29Z</time>
      </trkpt>
      <trkpt lat="41.47788" lon="9.26829">
        <ele>53.01</ele>
        <time>2014-06-06T16:08:30Z</time>
      </trkpt>
      <trkpt lat="41.4779" lon="9.26821">
        <ele>53.97</ele>
        <time>2014-06-06T16:08:31Z</time>
      </trkpt>
      <trkpt lat="41.47801" lon="9.26781">
        <ele>56.37</ele>
        <time>2014-06-06T16:08:35Z</time>
      </trkpt>
      <trkpt lat="41.47806" lon="9.26772">
        <ele>57.34</ele>
        <time>2014-06-06T16:08:36Z</time>
      </trkpt>
      <trkpt lat="41.47812" lon="9.26762">
        <ele>57.34</ele>
        <time>2014-06-06T16:08:37Z</time>
      </trkpt>
      <trkpt lat="41.47819" lon="9.26751">
        <ele>57.82</ele>
        <time>2014-06-06T16:08:38Z</time>
      </trkpt>
      <trkpt lat="41.47829" lon="9.26739">
        <ele>58.78</ele>
        <time>2014-06-06T16:08:39Z</time>
      </trkpt>
      <trkpt lat="41.47913" lon="9.26658">
        <ele>63.58</ele>
        <time>2014-06-06T16:08:45Z</time>
      </trkpt>
      <trkpt lat="41.47941" lon="9.26621">
        <ele>65.99</ele>
        <time>2014-06-06T16:08:48Z</time>
      </trkpt>
      <trkpt lat="41.47945" lon="9.26609">
        <ele>66.47</ele>
        <time>2014-06-06T16:08:49Z</time>
      </trkpt>
      <trkpt lat="41.47947" lon="9.26598">
        <ele>66.47</ele>
        <time>2014-06-06T16:08:50Z</time>
      </trkpt>
      <trkpt lat="41.47947" lon="9.26585">
        <ele>66.95</ele>
        <time>2014-06-06T16:08:51Z</time>
      </trkpt>
      <trkpt lat="41.47943" lon="9.26571">
        <ele>66.95</ele>
        <time>2014-06-06T16:08:52Z</time>
      </trkpt>
      <trkpt lat="41.47939" lon="9.26556">
        <ele>67.43</ele>
        <time>2014-06-06T16:08:53Z</time>
      </trkpt>
      <trkpt lat="41.47929" lon="9.26527">
        <ele>67.91</ele>
        <time>2014-06-06T16:08:55Z</time>
      </trkpt>
      <trkpt lat="41.47923" lon="9.26516">
        <ele>68.39</ele>
        <time>2014-06-06T16:08:56Z</time>
      </trkpt>
      <trkpt lat="41.47915" lon="9.265">
        <ele>69.35</ele>
        <time>2014-06-06T16:08:58Z</time>
      </trkpt>
      <trkpt lat="41.47915" lon="9.26489">
        <ele>70.79</ele>
        <time>2014-06-06T16:09:00Z</time>
      </trkpt>
      <trkpt lat="41.47918" lon="9.26484">
        <ele>71.76</ele>
        <time>2014-06-06T16:09:01Z</time>
      </trkpt>
      <trkpt lat="41.47924" lon="9.26481">
        <ele>71.76</ele>
        <time>2014-06-06T16:09:02Z</time>
      </trkpt>
      <trkpt lat="41.47931" lon="9.2648">
        <ele>72.72</ele>
        <time>2014-06-06T16:09:03Z</time>
      </trkpt>
      <trkpt lat="41.47952" lon="9.26467">
        <ele>74.64</ele>
        <time>2014-06-06T16:09:06Z</time>
      </trkpt>
      <trkpt lat="41.47958" lon="9.2646">
        <ele>75.12</ele>
        <time>2014-06-06T16:09:07Z</time>
      </trkpt>
      <trkpt lat="41.47963" lon="9.26451">
        <ele>76.08</ele>
        <time>2014-06-06T16:09:08Z</time>
      </trkpt>
      <trkpt lat="41.47983" lon="9.26414">
        <ele>76.56</ele>
        <time>2014-06-06T16:09:12Z</time>
      </trkpt>
      <trkpt lat="41.47989" lon="9.26405">
        <ele>77.04</ele>
        <time>2014-06-06T16:09:13Z</time>
      </trkpt>
      <trkpt lat="41.47997" lon="9.26396">
        <ele>76.08</ele>
        <time>2014-06-06T16:09:14Z</time>
      </trkpt>
      <trkpt lat="41.48008" lon="9.26387">
        <ele>76.08</ele>
        <time>2014-06-06T16:09:15Z</time>
      </trkpt>
      <trkpt lat="41.4802" lon="9.26377">
        <ele>76.08</ele>
        <time>2014-06-06T16:09:16Z</time>
      </trkpt>
      <trkpt lat="41.48033" lon="9.26369">
        <ele>76.08</ele>
        <time>2014-06-06T16:09:17Z</time>
      </trkpt>
      <trkpt lat="41.48158" lon="9.26291">
        <ele>78</ele>
        <time>2014-06-06T16:09:27Z</time>
      </trkpt>
      <trkpt lat="41.48197" lon="9.26268">
        <ele>78.97</ele>
        <time>2014-06-06T16:09:31Z</time>
      </trkpt>
      <trkpt lat="41.48204" lon="9.2626">
        <ele>78.97</ele>
        <time>2014-06-06T16:09:32Z</time>
      </trkpt>
      <trkpt lat="41.4821" lon="9.2625">
        <ele>78.97</ele>
        <time>2014-06-06T16:09:33Z</time>
      </trkpt>
      <trkpt lat="41.48255" lon="9.26157">
        <ele>78.48</ele>
        <time>2014-06-06T16:09:41Z</time>
      </trkpt>
      <trkpt lat="41.48261" lon="9.26149">
        <ele>78</ele>
        <time>2014-06-06T16:09:42Z</time>
      </trkpt>
      <trkpt lat="41.48268" lon="9.26142">
        <ele>78</ele>
        <time>2014-06-06T16:09:43Z</time>
      </trkpt>
      <trkpt lat="41.48277" lon="9.26137">
        <ele>78.48</ele>
        <time>2014-06-06T16:09:44Z</time>
      </trkpt>
      <trkpt lat="41.48287" lon="9.26133">
        <ele>78.97</ele>
        <time>2014-06-06T16:09:45Z</time>
      </trkpt>
      <trkpt lat="41.48332" lon="9.26114">
        <ele>80.89</ele>
        <time>2014-06-06T16:09:49Z</time>
      </trkpt>
      <trkpt lat="41.48344" lon="9.26111">
        <ele>81.37</ele>
        <time>2014-06-06T16:09:50Z</time>
      </trkpt>
      <trkpt lat="41.48395" lon="9.26101">
        <ele>82.81</ele>
        <time>2014-06-06T16:09:54Z</time>
      </trkpt>
      <trkpt lat="41.48408" lon="9.26101">
        <ele>83.29</ele>
        <time>2014-06-06T16:09:55Z</time>
      </trkpt>
      <trkpt lat="41.48467" lon="9.26103">
        <ele>84.25</ele>
        <time>2014-06-06T16:10:00Z</time>
      </trkpt>
      <trkpt lat="41.48502" lon="9.26096">
        <ele>85.69</ele>
        <time>2014-06-06T16:10:04Z</time>
      </trkpt>
      <trkpt lat="41.48509" lon="9.26092">
        <ele>85.69</ele>
        <time>2014-06-06T16:10:05Z</time>
      </trkpt>
      <trkpt lat="41.48515" lon="9.26086">
        <ele>85.69</ele>
        <time>2014-06-06T16:10:06Z</time>
      </trkpt>
      <trkpt lat="41.4852" lon="9.26076">
        <ele>85.69</ele>
        <time>2014-06-06T16:10:07Z</time>
      </trkpt>
      <trkpt lat="41.48525" lon="9.26064">
        <ele>86.18</ele>
        <time>2014-06-06T16:10:08Z</time>
      </trkpt>
      <trkpt lat="41.48544" lon="9.26029">
        <ele>87.14</ele>
        <time>2014-06-06T16:10:11Z</time>
      </trkpt>
      <trkpt lat="41.48557" lon="9.26005">
        <ele>90.5</ele>
        <time>2014-06-06T16:10:13Z</time>
      </trkpt>
      <trkpt lat="41.4856" lon="9.25994">
        <ele>90.98</ele>
        <time>2014-06-06T16:10:14Z</time>
      </trkpt>
      <trkpt lat="41.48561" lon="9.25982">
        <ele>91.46</ele>
        <time>2014-06-06T16:10:15Z</time>
      </trkpt>
      <trkpt lat="41.48556" lon="9.25971">
        <ele>92.9</ele>
        <time>2014-06-06T16:10:16Z</time>
      </trkpt>
      <trkpt lat="41.48552" lon="9.2596">
        <ele>93.39</ele>
        <time>2014-06-06T16:10:17Z</time>
      </trkpt>
      <trkpt lat="41.48545" lon="9.25948">
        <ele>93.87</ele>
        <time>2014-06-06T16:10:18Z</time>
      </trkpt>
      <trkpt lat="41.48529" lon="9.25923">
        <ele>95.31</ele>
        <time>2014-06-06T16:10:20Z</time>
      </trkpt>
      <trkpt lat="41.48478" lon="9.25858">
        <ele>103</ele>
        <time>2014-06-06T16:10:26Z</time>
      </trkpt>
      <trkpt lat="41.48469" lon="9.25851">
        <ele>103</ele>
        <time>2014-06-06T16:10:27Z</time>
      </trkpt>
      <trkpt lat="41.48441" lon="9.25825">
        <ele>104.92</ele>
        <time>2014-06-06T16:10:30Z</time>
      </trkpt>
      <trkpt lat="41.48433" lon="9.25815">
        <ele>105.88</ele>
        <time>2014-06-06T16:10:31Z</time>
      </trkpt>
      <trkpt lat="41.48426" lon="9.25804">
        <ele>107.81</ele>
        <time>2014-06-06T16:10:32Z</time>
      </trkpt>
      <trkpt lat="41.48404" lon="9.2577">
        <ele>109.73</ele>
        <time>2014-06-06T16:10:35Z</time>
      </trkpt>
      <trkpt lat="41.48397" lon="9.25759">
        <ele>110.69</ele>
        <time>2014-06-06T16:10:36Z</time>
      </trkpt>
      <trkpt lat="41.48385" lon="9.25737">
        <ele>112.61</ele>
        <time>2014-06-06T16:10:38Z</time>
      </trkpt>
      <trkpt lat="41.48381" lon="9.25724">
        <ele>113.09</ele>
        <time>2014-06-06T16:10:39Z</time>
      </trkpt>
      <trkpt lat="41.48363" lon="9.25687">
        <ele>115.01</ele>
        <time>2014-06-06T16:10:42Z</time>
      </trkpt>
      <trkpt lat="41.48349" lon="9.25669">
        <ele>118.86</ele>
        <time>2014-06-06T16:10:44Z</time>
      </trkpt>
      <trkpt lat="41.48343" lon="9.25662">
        <ele>120.3</ele>
        <time>2014-06-06T16:10:45Z</time>
      </trkpt>
      <trkpt lat="41.48336" lon="9.25657">
        <ele>121.74</ele>
        <time>2014-06-06T16:10:46Z</time>
      </trkpt>
      <trkpt lat="41.48331" lon="9.25653">
        <ele>122.71</ele>
        <time>2014-06-06T16:10:47Z</time>
      </trkpt>
      <trkpt lat="41.48325" lon="9.2565">
        <ele>123.67</ele>
        <time>2014-06-06T16:10:48Z</time>
      </trkpt>
      <trkpt lat="41.4832" lon="9.25647">
        <ele>123.67</ele>
        <time>2014-06-06T16:10:49Z</time>
      </trkpt>
      <trkpt lat="41.4831" lon="9.25638">
        <ele>124.15</ele>
        <time>2014-06-06T16:10:51Z</time>
      </trkpt>
      <trkpt lat="41.48306" lon="9.25632">
        <ele>125.11</ele>
        <time>2014-06-06T16:10:52Z</time>
      </trkpt>
      <trkpt lat="41.48302" lon="9.25623">
        <ele>125.59</ele>
        <time>2014-06-06T16:10:53Z</time>
      </trkpt>
      <trkpt lat="41.48298" lon="9.25612">
        <ele>126.55</ele>
        <time>2014-06-06T16:10:54Z</time>
      </trkpt>
      <trkpt lat="41.48294" lon="9.25602">
        <ele>127.51</ele>
        <time>2014-06-06T16:10:55Z</time>
      </trkpt>
      <trkpt lat="41.48291" lon="9.2559">
        <ele>128.95</ele>
        <time>2014-06-06T16:10:56Z</time>
      </trkpt>
      <trkpt lat="41.48289" lon="9.25579">
        <ele>129.92</ele>
        <time>2014-06-06T16:10:57Z</time>
      </trkpt>
      <trkpt lat="41.48282" lon="9.25545">
        <ele>131.84</ele>
        <time>2014-06-06T16:11:00Z</time>
      </trkpt>
      <trkpt lat="41.48277" lon="9.25535">
        <ele>131.84</ele>
        <time>2014-06-06T16:11:01Z</time>
      </trkpt>
      <trkpt lat="41.48225" lon="9.25413">
        <ele>134.24</ele>
        <time>2014-06-06T16:11:10Z</time>
      </trkpt>
      <trkpt lat="41.48223" lon="9.254">
        <ele>135.2</ele>
        <time>2014-06-06T16:11:11Z</time>
      </trkpt>
      <trkpt lat="41.48222" lon="9.25362">
        <ele>137.13</ele>
        <time>2014-06-06T16:11:14Z</time>
      </trkpt>
      <trkpt lat="41.48224" lon="9.25352">
        <ele>138.57</ele>
        <time>2014-06-06T16:11:15Z</time>
      </trkpt>
      <trkpt lat="41.48227" lon="9.25343">
        <ele>139.05</ele>
        <time>2014-06-06T16:11:16Z</time>
      </trkpt>
      <trkpt lat="41.48232" lon="9.25335">
        <ele>140.49</ele>
        <time>2014-06-06T16:11:17Z</time>
      </trkpt>
      <trkpt lat="41.48238" lon="9.25327">
        <ele>141.93</ele>
        <time>2014-06-06T16:11:18Z</time>
      </trkpt>
      <trkpt lat="41.48245" lon="9.2532">
        <ele>142.89</ele>
        <time>2014-06-06T16:11:19Z</time>
      </trkpt>
      <trkpt lat="41.48252" lon="9.25313">
        <ele>143.85</ele>
        <time>2014-06-06T16:11:20Z</time>
      </trkpt>
      <trkpt lat="41.4826" lon="9.25307">
        <ele>144.34</ele>
        <time>2014-06-06T16:11:21Z</time>
      </trkpt>
      <trkpt lat="41.48277" lon="9.25286">
        <ele>147.22</ele>
        <time>2014-06-06T16:11:24Z</time>
      </trkpt>
      <trkpt lat="41.48298" lon="9.25268">
        <ele>149.14</ele>
        <time>2014-06-06T16:11:27Z</time>
      </trkpt>
      <trkpt lat="41.48307" lon="9.25263">
        <ele>149.62</ele>
        <time>2014-06-06T16:11:28Z</time>
      </trkpt>
      <trkpt lat="41.48314" lon="9.25258">
        <ele>150.1</ele>
        <time>2014-06-06T16:11:29Z</time>
      </trkpt>
      <trkpt lat="41.48321" lon="9.25253">
        <ele>150.58</ele>
        <time>2014-06-06T16:11:30Z</time>
      </trkpt>
      <trkpt lat="41.48327" lon="9.25247">
        <ele>151.06</ele>
        <time>2014-06-06T16:11:31Z</time>
      </trkpt>
      <trkpt lat="41.48348" lon="9.25236">
        <ele>149.62</ele>
        <time>2014-06-06T16:11:34Z</time>
      </trkpt>
      <trkpt lat="41.48368" lon="9.25227">
        <ele>150.1</ele>
        <time>2014-06-06T16:11:37Z</time>
      </trkpt>
      <trkpt lat="41.48372" lon="9.2522">
        <ele>150.58</ele>
        <time>2014-06-06T16:11:38Z</time>
      </trkpt>
      <trkpt lat="41.48374" lon="9.2521">
        <ele>152.03</ele>
        <time>2014-06-06T16:11:39Z</time>
      </trkpt>
      <trkpt lat="41.48373" lon="9.25201">
        <ele>152.99</ele>
        <time>2014-06-06T16:11:40Z</time>
      </trkpt>
      <trkpt lat="41.4837" lon="9.25192">
        <ele>153.47</ele>
        <time>2014-06-06T16:11:41Z</time>
      </trkpt>
      <trkpt lat="41.48368" lon="9.25183">
        <ele>154.43</ele>
        <time>2014-06-06T16:11:42Z</time>
      </trkpt>
      <trkpt lat="41.48363" lon="9.25164">
        <ele>156.83</ele>
        <time>2014-06-06T16:11:45Z</time>
      </trkpt>
      <trkpt lat="41.48359" lon="9.25159">
        <ele>157.79</ele>
        <time>2014-06-06T16:11:46Z</time>
      </trkpt>
      <trkpt lat="41.48354" lon="9.25156">
        <ele>157.79</ele>
        <time>2014-06-06T16:11:47Z</time>
      </trkpt>
      <trkpt lat="41.48326" lon="9.25135">
        <ele>157.79</ele>
        <time>2014-06-06T16:11:51Z</time>
      </trkpt>
      <trkpt lat="41.483" lon="9.25108">
        <ele>156.83</ele>
        <time>2014-06-06T16:11:54Z</time>
      </trkpt>
      <trkpt lat="41.48291" lon="9.25097">
        <ele>157.31</ele>
        <time>2014-06-06T16:11:55Z</time>
      </trkpt>
      <trkpt lat="41.48283" lon="9.25084">
        <ele>156.83</ele>
        <time>2014-06-06T16:11:56Z</time>
      </trkpt>
      <trkpt lat="41.48254" lon="9.25032">
        <ele>160.2</ele>
        <time>2014-06-06T16:12:00Z</time>
      </trkpt>
      <trkpt lat="41.48253" lon="9.25019">
        <ele>159.72</ele>
        <time>2014-06-06T16:12:01Z</time>
      </trkpt>
      <trkpt lat="41.48254" lon="9.25008">
        <ele>160.2</ele>
        <time>2014-06-06T16:12:02Z</time>
      </trkpt>
      <trkpt lat="41.48258" lon="9.24996">
        <ele>160.2</ele>
        <time>2014-06-06T16:12:03Z</time>
      </trkpt>
      <trkpt lat="41.48263" lon="9.24986">
        <ele>161.64</ele>
        <time>2014-06-06T16:12:04Z</time>
      </trkpt>
      <trkpt lat="41.48269" lon="9.24975">
        <ele>160.68</ele>
        <time>2014-06-06T16:12:05Z</time>
      </trkpt>
      <trkpt lat="41.48276" lon="9.24967">
        <ele>161.16</ele>
        <time>2014-06-06T16:12:06Z</time>
      </trkpt>
      <trkpt lat="41.48284" lon="9.2496">
        <ele>160.68</ele>
        <time>2014-06-06T16:12:07Z</time>
      </trkpt>
      <trkpt lat="41.48292" lon="9.24952">
        <ele>159.24</ele>
        <time>2014-06-06T16:12:08Z</time>
      </trkpt>
      <trkpt lat="41.483" lon="9.24943">
        <ele>158.27</ele>
        <time>2014-06-06T16:12:09Z</time>
      </trkpt>
      <trkpt lat="41.48306" lon="9.24932">
        <ele>157.79</ele>
        <time>2014-06-06T16:12:10Z</time>
      </trkpt>
      <trkpt lat="41.48309" lon="9.24918">
        <ele>157.31</ele>
        <time>2014-06-06T16:12:11Z</time>
      </trkpt>
      <trkpt lat="41.48309" lon="9.24904">
        <ele>157.31</ele>
        <time>2014-06-06T16:12:12Z</time>
      </trkpt>
      <trkpt lat="41.48307" lon="9.24888">
        <ele>157.31</ele>
        <time>2014-06-06T16:12:13Z</time>
      </trkpt>
      <trkpt lat="41.48305" lon="9.2487">
        <ele>157.31</ele>
        <time>2014-06-06T16:12:14Z</time>
      </trkpt>
      <trkpt lat="41.48294" lon="9.24786">
        <ele>157.79</ele>
        <time>2014-06-06T16:12:19Z</time>
      </trkpt>
      <trkpt lat="41.48289" lon="9.24771">
        <ele>157.31</ele>
        <time>2014-06-06T16:12:20Z</time>
      </trkpt>
      <trkpt lat="41.48283" lon="9.24756">
        <ele>156.83</ele>
        <time>2014-06-06T16:12:21Z</time>
      </trkpt>
      <trkpt lat="41.48278" lon="9.24741">
        <ele>155.87</ele>
        <time>2014-06-06T16:12:22Z</time>
      </trkpt>
      <trkpt lat="41.48274" lon="9.24726">
        <ele>154.91</ele>
        <time>2014-06-06T16:12:23Z</time>
      </trkpt>
      <trkpt lat="41.48271" lon="9.2471">
        <ele>154.91</ele>
        <time>2014-06-06T16:12:24Z</time>
      </trkpt>
      <trkpt lat="41.48267" lon="9.24694">
        <ele>153.95</ele>
        <time>2014-06-06T16:12:25Z</time>
      </trkpt>
      <trkpt lat="41.48265" lon="9.24678">
        <ele>153.95</ele>
        <time>2014-06-06T16:12:26Z</time>
      </trkpt>
      <trkpt lat="41.48265" lon="9.24648">
        <ele>153.47</ele>
        <time>2014-06-06T16:12:28Z</time>
      </trkpt>
      <trkpt lat="41.48268" lon="9.24634">
        <ele>153.47</ele>
        <time>2014-06-06T16:12:29Z</time>
      </trkpt>
      <trkpt lat="41.48274" lon="9.24594">
        <ele>151.54</ele>
        <time>2014-06-06T16:12:32Z</time>
      </trkpt>
      <trkpt lat="41.48271" lon="9.24582">
        <ele>152.03</ele>
        <time>2014-06-06T16:12:33Z</time>
      </trkpt>
      <trkpt lat="41.48265" lon="9.2457">
        <ele>152.51</ele>
        <time>2014-06-06T16:12:34Z</time>
      </trkpt>
      <trkpt lat="41.48257" lon="9.24559">
        <ele>152.99</ele>
        <time>2014-06-06T16:12:35Z</time>
      </trkpt>
      <trkpt lat="41.48249" lon="9.24548">
        <ele>152.51</ele>
        <time>2014-06-06T16:12:36Z</time>
      </trkpt>
      <trkpt lat="41.48239" lon="9.24538">
        <ele>152.03</ele>
        <time>2014-06-06T16:12:37Z</time>
      </trkpt>
      <trkpt lat="41.48227" lon="9.24529">
        <ele>152.03</ele>
        <time>2014-06-06T16:12:38Z</time>
      </trkpt>
      <trkpt lat="41.48214" lon="9.2452">
        <ele>151.06</ele>
        <time>2014-06-06T16:12:39Z</time>
      </trkpt>
      <trkpt lat="41.48202" lon="9.24512">
        <ele>150.1</ele>
        <time>2014-06-06T16:12:40Z</time>
      </trkpt>
      <trkpt lat="41.48168" lon="9.24489">
        <ele>147.7</ele>
        <time>2014-06-06T16:12:43Z</time>
      </trkpt>
      <trkpt lat="41.48158" lon="9.24478">
        <ele>147.7</ele>
        <time>2014-06-06T16:12:44Z</time>
      </trkpt>
      <trkpt lat="41.4815" lon="9.24465">
        <ele>146.74</ele>
        <time>2014-06-06T16:12:45Z</time>
      </trkpt>
      <trkpt lat="41.48142" lon="9.2445">
        <ele>147.22</ele>
        <time>2014-06-06T16:12:46Z</time>
      </trkpt>
      <trkpt lat="41.48134" lon="9.24433">
        <ele>146.26</ele>
        <time>2014-06-06T16:12:47Z</time>
      </trkpt>
      <trkpt lat="41.48064" lon="9.24322">
        <ele>142.89</ele>
        <time>2014-06-06T16:12:54Z</time>
      </trkpt>
      <trkpt lat="41.48034" lon="9.24289">
        <ele>140.97</ele>
        <time>2014-06-06T16:12:57Z</time>
      </trkpt>
      <trkpt lat="41.48023" lon="9.24282">
        <ele>140.01</ele>
        <time>2014-06-06T16:12:58Z</time>
      </trkpt>
      <trkpt lat="41.48015" lon="9.24275">
        <ele>138.57</ele>
        <time>2014-06-06T16:12:59Z</time>
      </trkpt>
      <trkpt lat="41.48008" lon="9.24267">
        <ele>137.61</ele>
        <time>2014-06-06T16:13:00Z</time>
      </trkpt>
      <trkpt lat="41.48004" lon="9.24257">
        <ele>136.16</ele>
        <time>2014-06-06T16:13:01Z</time>
      </trkpt>
      <trkpt lat="41.48002" lon="9.24246">
        <ele>136.16</ele>
        <time>2014-06-06T16:13:02Z</time>
      </trkpt>
      <trkpt lat="41.48003" lon="9.24235">
        <ele>135.68</ele>
        <time>2014-06-06T16:13:03Z</time>
      </trkpt>
      <trkpt lat="41.48006" lon="9.24225">
        <ele>134.72</ele>
        <time>2014-06-06T16:13:04Z</time>
      </trkpt>
      <trkpt lat="41.4801" lon="9.24215">
        <ele>134.24</ele>
        <time>2014-06-06T16:13:05Z</time>
      </trkpt>
      <trkpt lat="41.48016" lon="9.24207">
        <ele>134.24</ele>
        <time>2014-06-06T16:13:06Z</time>
      </trkpt>
      <trkpt lat="41.48024" lon="9.242">
        <ele>133.28</ele>
        <time>2014-06-06T16:13:07Z</time>
      </trkpt>
      <trkpt lat="41.48034" lon="9.24198">
        <ele>132.8</ele>
        <time>2014-06-06T16:13:08Z</time>
      </trkpt>
      <trkpt lat="41.48045" lon="9.242">
        <ele>132.8</ele>
        <time>2014-06-06T16:13:09Z</time>
      </trkpt>
      <trkpt lat="41.48059" lon="9.24204">
        <ele>132.8</ele>
        <time>2014-06-06T16:13:10Z</time>
      </trkpt>
      <trkpt lat="41.48154" lon="9.24227">
        <ele>131.36</ele>
        <time>2014-06-06T16:13:17Z</time>
      </trkpt>
      <trkpt lat="41.48188" lon="9.24241">
        <ele>129.92</ele>
        <time>2014-06-06T16:13:20Z</time>
      </trkpt>
      <trkpt lat="41.48199" lon="9.24243">
        <ele>129.92</ele>
        <time>2014-06-06T16:13:21Z</time>
      </trkpt>
      <trkpt lat="41.48211" lon="9.24244">
        <ele>129.43</ele>
        <time>2014-06-06T16:13:22Z</time>
      </trkpt>
      <trkpt lat="41.48223" lon="9.24244">
        <ele>128.47</ele>
        <time>2014-06-06T16:13:23Z</time>
      </trkpt>
      <trkpt lat="41.48234" lon="9.24247">
        <ele>127.51</ele>
        <time>2014-06-06T16:13:24Z</time>
      </trkpt>
      <trkpt lat="41.48246" lon="9.24251">
        <ele>127.03</ele>
        <time>2014-06-06T16:13:25Z</time>
      </trkpt>
      <trkpt lat="41.48258" lon="9.24257">
        <ele>126.55</ele>
        <time>2014-06-06T16:13:26Z</time>
      </trkpt>
      <trkpt lat="41.48269" lon="9.24263">
        <ele>126.55</ele>
        <time>2014-06-06T16:13:27Z</time>
      </trkpt>
      <trkpt lat="41.48302" lon="9.24278">
        <ele>125.59</ele>
        <time>2014-06-06T16:13:30Z</time>
      </trkpt>
      <trkpt lat="41.48313" lon="9.24279">
        <ele>125.11</ele>
        <time>2014-06-06T16:13:31Z</time>
      </trkpt>
      <trkpt lat="41.48324" lon="9.24276">
        <ele>124.63</ele>
        <time>2014-06-06T16:13:32Z</time>
      </trkpt>
      <trkpt lat="41.48335" lon="9.24271">
        <ele>124.15</ele>
        <time>2014-06-06T16:13:33Z</time>
      </trkpt>
      <trkpt lat="41.48346" lon="9.24267">
        <ele>123.19</ele>
        <time>2014-06-06T16:13:34Z</time>
      </trkpt>
      <trkpt lat="41.48358" lon="9.24267">
        <ele>122.22</ele>
        <time>2014-06-06T16:13:35Z</time>
      </trkpt>
      <trkpt lat="41.48369" lon="9.24269">
        <ele>121.26</ele>
        <time>2014-06-06T16:13:36Z</time>
      </trkpt>
      <trkpt lat="41.48422" lon="9.24284">
        <ele>116.94</ele>
        <time>2014-06-06T16:13:41Z</time>
      </trkpt>
      <trkpt lat="41.4843" lon="9.2429">
        <ele>116.46</ele>
        <time>2014-06-06T16:13:42Z</time>
      </trkpt>
      <trkpt lat="41.48442" lon="9.24294">
        <ele>115.5</ele>
        <time>2014-06-06T16:13:44Z</time>
      </trkpt>
      <trkpt lat="41.48446" lon="9.24292">
        <ele>115.5</ele>
        <time>2014-06-06T16:13:45Z</time>
      </trkpt>
      <trkpt lat="41.48448" lon="9.24286">
        <ele>115.01</ele>
        <time>2014-06-06T16:13:46Z</time>
      </trkpt>
      <trkpt lat="41.48445" lon="9.24281">
        <ele>114.53</ele>
        <time>2014-06-06T16:13:47Z</time>
      </trkpt>
      <trkpt lat="41.48439" lon="9.24277">
        <ele>114.53</ele>
        <time>2014-06-06T16:13:48Z</time>
      </trkpt>
      <trkpt lat="41.48431" lon="9.24272">
        <ele>115.01</ele>
        <time>2014-06-06T16:13:49Z</time>
      </trkpt>
      <trkpt lat="41.48413" lon="9.24257">
        <ele>113.57</ele>
        <time>2014-06-06T16:13:51Z</time>
      </trkpt>
      <trkpt lat="41.48354" lon="9.24209">
        <ele>110.21</ele>
        <time>2014-06-06T16:13:57Z</time>
      </trkpt>
      <trkpt lat="41.48343" lon="9.24204">
        <ele>109.73</ele>
        <time>2014-06-06T16:13:58Z</time>
      </trkpt>
      <trkpt lat="41.48332" lon="9.242">
        <ele>109.25</ele>
        <time>2014-06-06T16:13:59Z</time>
      </trkpt>
      <trkpt lat="41.48313" lon="9.24191">
        <ele>107.81</ele>
        <time>2014-06-06T16:14:01Z</time>
      </trkpt>
      <trkpt lat="41.48305" lon="9.24182">
        <ele>107.32</ele>
        <time>2014-06-06T16:14:02Z</time>
      </trkpt>
      <trkpt lat="41.48279" lon="9.24154">
        <ele>105.88</ele>
        <time>2014-06-06T16:14:05Z</time>
      </trkpt>
      <trkpt lat="41.48267" lon="9.24147">
        <ele>104.92</ele>
        <time>2014-06-06T16:14:06Z</time>
      </trkpt>
      <trkpt lat="41.48216" lon="9.24119">
        <ele>102.04</ele>
        <time>2014-06-06T16:14:10Z</time>
      </trkpt>
      <trkpt lat="41.48205" lon="9.2411">
        <ele>101.08</ele>
        <time>2014-06-06T16:14:11Z</time>
      </trkpt>
      <trkpt lat="41.48197" lon="9.24099">
        <ele>100.6</ele>
        <time>2014-06-06T16:14:12Z</time>
      </trkpt>
      <trkpt lat="41.48172" lon="9.24071">
        <ele>99.15</ele>
        <time>2014-06-06T16:14:15Z</time>
      </trkpt>
      <trkpt lat="41.48161" lon="9.24067">
        <ele>98.67</ele>
        <time>2014-06-06T16:14:16Z</time>
      </trkpt>
      <trkpt lat="41.48149" lon="9.24064">
        <ele>98.19</ele>
        <time>2014-06-06T16:14:17Z</time>
      </trkpt>
      <trkpt lat="41.48124" lon="9.2406">
        <ele>97.23</ele>
        <time>2014-06-06T16:14:19Z</time>
      </trkpt>
      <trkpt lat="41.48113" lon="9.24055">
        <ele>96.75</ele>
        <time>2014-06-06T16:14:20Z</time>
      </trkpt>
      <trkpt lat="41.48072" lon="9.24028">
        <ele>95.31</ele>
        <time>2014-06-06T16:14:24Z</time>
      </trkpt>
      <trkpt lat="41.48065" lon="9.2402">
        <ele>94.83</ele>
        <time>2014-06-06T16:14:25Z</time>
      </trkpt>
      <trkpt lat="41.48061" lon="9.24009">
        <ele>94.35</ele>
        <time>2014-06-06T16:14:26Z</time>
      </trkpt>
      <trkpt lat="41.48058" lon="9.23997">
        <ele>94.35</ele>
        <time>2014-06-06T16:14:27Z</time>
      </trkpt>
      <trkpt lat="41.48054" lon="9.23984">
        <ele>93.87</ele>
        <time>2014-06-06T16:14:28Z</time>
      </trkpt>
      <trkpt lat="41.4805" lon="9.23971">
        <ele>93.87</ele>
        <time>2014-06-06T16:14:29Z</time>
      </trkpt>
      <trkpt lat="41.48043" lon="9.23956">
        <ele>93.39</ele>
        <time>2014-06-06T16:14:30Z</time>
      </trkpt>
      <trkpt lat="41.48035" lon="9.23942">
        <ele>92.42</ele>
        <time>2014-06-06T16:14:31Z</time>
      </trkpt>
      <trkpt lat="41.48027" lon="9.2393">
        <ele>90.98</ele>
        <time>2014-06-06T16:14:32Z</time>
      </trkpt>
      <trkpt lat="41.48019" lon="9.23918">
        <ele>90.5</ele>
        <time>2014-06-06T16:14:33Z</time>
      </trkpt>
      <trkpt lat="41.48002" lon="9.23893">
        <ele>88.58</ele>
        <time>2014-06-06T16:14:35Z</time>
      </trkpt>
      <trkpt lat="41.47992" lon="9.23883">
        <ele>88.1</ele>
        <time>2014-06-06T16:14:36Z</time>
      </trkpt>
      <trkpt lat="41.47982" lon="9.23873">
        <ele>86.18</ele>
        <time>2014-06-06T16:14:37Z</time>
      </trkpt>
      <trkpt lat="41.47911" lon="9.23816">
        <ele>80.89</ele>
        <time>2014-06-06T16:14:43Z</time>
      </trkpt>
      <trkpt lat="41.47899" lon="9.23811">
        <ele>80.41</ele>
        <time>2014-06-06T16:14:44Z</time>
      </trkpt>
      <trkpt lat="41.47866" lon="9.23797">
        <ele>79.45</ele>
        <time>2014-06-06T16:14:47Z</time>
      </trkpt>
      <trkpt lat="41.47858" lon="9.23789">
        <ele>79.45</ele>
        <time>2014-06-06T16:14:48Z</time>
      </trkpt>
      <trkpt lat="41.47852" lon="9.23778">
        <ele>78.97</ele>
        <time>2014-06-06T16:14:49Z</time>
      </trkpt>
      <trkpt lat="41.47848" lon="9.23763">
        <ele>78.97</ele>
        <time>2014-06-06T16:14:50Z</time>
      </trkpt>
      <trkpt lat="41.47846" lon="9.23748">
        <ele>78.48</ele>
        <time>2014-06-06T16:14:51Z</time>
      </trkpt>
      <trkpt lat="41.47842" lon="9.23695">
        <ele>73.2</ele>
        <time>2014-06-06T16:14:54Z</time>
      </trkpt>
      <trkpt lat="41.47843" lon="9.23678">
        <ele>70.79</ele>
        <time>2014-06-06T16:14:55Z</time>
      </trkpt>
      <trkpt lat="41.47847" lon="9.2366">
        <ele>68.39</ele>
        <time>2014-06-06T16:14:56Z</time>
      </trkpt>
      <trkpt lat="41.47847" lon="9.23616">
        <ele>65.03</ele>
        <time>2014-06-06T16:14:59Z</time>
      </trkpt>
      <trkpt lat="41.47844" lon="9.23603">
        <ele>64.55</ele>
        <time>2014-06-06T16:15:00Z</time>
      </trkpt>
      <trkpt lat="41.47839" lon="9.23577">
        <ele>59.74</ele>
        <time>2014-06-06T16:15:02Z</time>
      </trkpt>
      <trkpt lat="41.4784" lon="9.23564">
        <ele>58.3</ele>
        <time>2014-06-06T16:15:03Z</time>
      </trkpt>
      <trkpt lat="41.47837" lon="9.23526">
        <ele>56.37</ele>
        <time>2014-06-06T16:15:06Z</time>
      </trkpt>
      <trkpt lat="41.47833" lon="9.23514">
        <ele>54.93</ele>
        <time>2014-06-06T16:15:07Z</time>
      </trkpt>
      <trkpt lat="41.47828" lon="9.23484">
        <ele>52.05</ele>
        <time>2014-06-06T16:15:09Z</time>
      </trkpt>
      <trkpt lat="41.47827" lon="9.2347">
        <ele>51.57</ele>
        <time>2014-06-06T16:15:10Z</time>
      </trkpt>
      <trkpt lat="41.47827" lon="9.23456">
        <ele>50.13</ele>
        <time>2014-06-06T16:15:11Z</time>
      </trkpt>
      <trkpt lat="41.4783" lon="9.2342">
        <ele>47.24</ele>
        <time>2014-06-06T16:15:14Z</time>
      </trkpt>
      <trkpt lat="41.4783" lon="9.2341">
        <ele>47.24</ele>
        <time>2014-06-06T16:15:15Z</time>
      </trkpt>
      <trkpt lat="41.47829" lon="9.23401">
        <ele>46.28</ele>
        <time>2014-06-06T16:15:16Z</time>
      </trkpt>
      <trkpt lat="41.47827" lon="9.23394">
        <ele>45.8</ele>
        <time>2014-06-06T16:15:17Z</time>
      </trkpt>
      <trkpt lat="41.47825" lon="9.23389">
        <ele>44.84</ele>
        <time>2014-06-06T16:15:18Z</time>
      </trkpt>
      <trkpt lat="41.47824" lon="9.23365">
        <ele>43.4</ele>
        <time>2014-06-06T16:15:26Z</time>
      </trkpt>
      <trkpt lat="41.47827" lon="9.23361">
        <ele>41.95</ele>
        <time>2014-06-06T16:15:27Z</time>
      </trkpt>
      <trkpt lat="41.47829" lon="9.23358">
        <ele>41.95</ele>
        <time>2014-06-06T16:15:28Z</time>
      </trkpt>
      <trkpt lat="41.47833" lon="9.23356">
        <ele>40.99</ele>
        <time>2014-06-06T16:15:29Z</time>
      </trkpt>
      <trkpt lat="41.47836" lon="9.23355">
        <ele>40.99</ele>
        <time>2014-06-06T16:15:30Z</time>
      </trkpt>
      <trkpt lat="41.47841" lon="9.23357">
        <ele>40.51</ele>
        <time>2014-06-06T16:15:31Z</time>
      </trkpt>
      <trkpt lat="41.47848" lon="9.23363">
        <ele>40.03</ele>
        <time>2014-06-06T16:15:32Z</time>
      </trkpt>
      <trkpt lat="41.47856" lon="9.23374">
        <ele>40.03</ele>
        <time>2014-06-06T16:15:33Z</time>
      </trkpt>
      <trkpt lat="41.47929" lon="9.2347">
        <ele>40.51</ele>
        <time>2014-06-06T16:15:39Z</time>
      </trkpt>
      <trkpt lat="41.48079" lon="9.23665">
        <ele>43.88</ele>
        <time>2014-06-06T16:15:49Z</time>
      </trkpt>
      <trkpt lat="41.4819" lon="9.23807">
        <ele>47.72</ele>
        <time>2014-06-06T16:15:56Z</time>
      </trkpt>
      <trkpt lat="41.48207" lon="9.23822">
        <ele>48.68</ele>
        <time>2014-06-06T16:15:57Z</time>
      </trkpt>
      <trkpt lat="41.48224" lon="9.23835">
        <ele>49.16</ele>
        <time>2014-06-06T16:15:58Z</time>
      </trkpt>
      <trkpt lat="41.48387" lon="9.2394">
        <ele>54.93</ele>
        <time>2014-06-06T16:16:06Z</time>
      </trkpt>
      <trkpt lat="41.48673" lon="9.24128">
        <ele>60.7</ele>
        <time>2014-06-06T16:16:19Z</time>
      </trkpt>
      <trkpt lat="41.48857" lon="9.24245">
        <ele>66.47</ele>
        <time>2014-06-06T16:16:28Z</time>
      </trkpt>
      <trkpt lat="41.48877" lon="9.24252">
        <ele>67.43</ele>
        <time>2014-06-06T16:16:29Z</time>
      </trkpt>
      <trkpt lat="41.48899" lon="9.24254">
        <ele>67.91</ele>
        <time>2014-06-06T16:16:30Z</time>
      </trkpt>
      <trkpt lat="41.48958" lon="9.24261">
        <ele>69.35</ele>
        <time>2014-06-06T16:16:33Z</time>
      </trkpt>
      <trkpt lat="41.48977" lon="9.24267">
        <ele>68.87</ele>
        <time>2014-06-06T16:16:34Z</time>
      </trkpt>
      <trkpt lat="41.48995" lon="9.24276">
        <ele>68.87</ele>
        <time>2014-06-06T16:16:35Z</time>
      </trkpt>
      <trkpt lat="41.49012" lon="9.24288">
        <ele>68.87</ele>
        <time>2014-06-06T16:16:36Z</time>
      </trkpt>
      <trkpt lat="41.49028" lon="9.24301">
        <ele>69.35</ele>
        <time>2014-06-06T16:16:37Z</time>
      </trkpt>
      <trkpt lat="41.49055" lon="9.24329">
        <ele>69.83</ele>
        <time>2014-06-06T16:16:39Z</time>
      </trkpt>
      <trkpt lat="41.49064" lon="9.24346">
        <ele>69.83</ele>
        <time>2014-06-06T16:16:40Z</time>
      </trkpt>
      <trkpt lat="41.49069" lon="9.24367">
        <ele>69.83</ele>
        <time>2014-06-06T16:16:41Z</time>
      </trkpt>
      <trkpt lat="41.49072" lon="9.24389">
        <ele>70.31</ele>
        <time>2014-06-06T16:16:42Z</time>
      </trkpt>
      <trkpt lat="41.49074" lon="9.24413">
        <ele>69.83</ele>
        <time>2014-06-06T16:16:43Z</time>
      </trkpt>
      <trkpt lat="41.49084" lon="9.24487">
        <ele>69.35</ele>
        <time>2014-06-06T16:16:46Z</time>
      </trkpt>
      <trkpt lat="41.49092" lon="9.24508">
        <ele>68.39</ele>
        <time>2014-06-06T16:16:47Z</time>
      </trkpt>
      <trkpt lat="41.49102" lon="9.24526">
        <ele>66.95</ele>
        <time>2014-06-06T16:16:48Z</time>
      </trkpt>
      <trkpt lat="41.49115" lon="9.24542">
        <ele>66.47</ele>
        <time>2014-06-06T16:16:49Z</time>
      </trkpt>
      <trkpt lat="41.49131" lon="9.24553">
        <ele>65.99</ele>
        <time>2014-06-06T16:16:50Z</time>
      </trkpt>
      <trkpt lat="41.4915" lon="9.24562">
        <ele>65.99</ele>
        <time>2014-06-06T16:16:51Z</time>
      </trkpt>
      <trkpt lat="41.4917" lon="9.24568">
        <ele>65.99</ele>
        <time>2014-06-06T16:16:52Z</time>
      </trkpt>
      <trkpt lat="41.49191" lon="9.24572">
        <ele>65.51</ele>
        <time>2014-06-06T16:16:53Z</time>
      </trkpt>
      <trkpt lat="41.49319" lon="9.24608">
        <ele>64.07</ele>
        <time>2014-06-06T16:16:59Z</time>
      </trkpt>
      <trkpt lat="41.49339" lon="9.24623">
        <ele>63.58</ele>
        <time>2014-06-06T16:17:00Z</time>
      </trkpt>
      <trkpt lat="41.49623" lon="9.24857">
        <ele>54.45</ele>
        <time>2014-06-06T16:17:14Z</time>
      </trkpt>
      <trkpt lat="41.49801" lon="9.25004">
        <ele>48.2</ele>
        <time>2014-06-06T16:17:23Z</time>
      </trkpt>
      <trkpt lat="41.49978" lon="9.25136">
        <ele>41.95</ele>
        <time>2014-06-06T16:17:32Z</time>
      </trkpt>
      <trkpt lat="41.50185" lon="9.25224">
        <ele>37.15</ele>
        <time>2014-06-06T16:17:41Z</time>
      </trkpt>
      <trkpt lat="41.50438" lon="9.25316">
        <ele>32.82</ele>
        <time>2014-06-06T16:17:52Z</time>
      </trkpt>
      <trkpt lat="41.50644" lon="9.25394">
        <ele>27.53</ele>
        <time>2014-06-06T16:18:01Z</time>
      </trkpt>
      <trkpt lat="41.50859" lon="9.25476">
        <ele>20.81</ele>
        <time>2014-06-06T16:18:10Z</time>
      </trkpt>
      <trkpt lat="41.51292" lon="9.2564">
        <ele>15.04</ele>
        <time>2014-06-06T16:18:29Z</time>
      </trkpt>
      <trkpt lat="41.51569" lon="9.25745">
        <ele>8.31</ele>
        <time>2014-06-06T16:18:41Z</time>
      </trkpt>
      <trkpt lat="41.51847" lon="9.25851">
        <ele>5.42</ele>
        <time>2014-06-06T16:18:53Z</time>
      </trkpt>
      <trkpt lat="41.52116" lon="9.25954">
        <ele>3.02</ele>
        <time>2014-06-06T16:19:04Z</time>
      </trkpt>
      <trkpt lat="41.52301" lon="9.26024">
        <ele>2.54</ele>
        <time>2014-06-06T16:19:13Z</time>
      </trkpt>
      <trkpt lat="41.52537" lon="9.26114">
        <ele>2.54</ele>
        <time>2014-06-06T16:19:25Z</time>
      </trkpt>
      <trkpt lat="41.52819" lon="9.26222">
        <ele>3.98</ele>
        <time>2014-06-06T16:19:38Z</time>
      </trkpt>
      <trkpt lat="41.53125" lon="9.2634">
        <ele>4.46</ele>
        <time>2014-06-06T16:19:53Z</time>
      </trkpt>
      <trkpt lat="41.53369" lon="9.26433">
        <ele>11.67</ele>
        <time>2014-06-06T16:20:05Z</time>
      </trkpt>
      <trkpt lat="41.53577" lon="9.26513">
        <ele>10.71</ele>
        <time>2014-06-06T16:20:15Z</time>
      </trkpt>
      <trkpt lat="41.53787" lon="9.26595">
        <ele>16</ele>
        <time>2014-06-06T16:20:25Z</time>
      </trkpt>
      <trkpt lat="41.54" lon="9.26674">
        <ele>23.21</ele>
        <time>2014-06-06T16:20:36Z</time>
      </trkpt>
      <trkpt lat="41.54222" lon="9.26762">
        <ele>27.53</ele>
        <time>2014-06-06T16:20:47Z</time>
      </trkpt>
      <trkpt lat="41.54363" lon="9.26814">
        <ele>31.86</ele>
        <time>2014-06-06T16:20:55Z</time>
      </trkpt>
      <trkpt lat="41.54515" lon="9.26858">
        <ele>31.38</ele>
        <time>2014-06-06T16:21:05Z</time>
      </trkpt>
      <trkpt lat="41.54629" lon="9.26889">
        <ele>25.61</ele>
        <time>2014-06-06T16:21:14Z</time>
      </trkpt>
      <trkpt lat="41.54666" lon="9.26897">
        <ele>24.65</ele>
        <time>2014-06-06T16:21:18Z</time>
      </trkpt>
      <trkpt lat="41.54674" lon="9.26899">
        <ele>24.65</ele>
        <time>2014-06-06T16:21:19Z</time>
      </trkpt>
      <trkpt lat="41.54681" lon="9.26902">
        <ele>24.65</ele>
        <time>2014-06-06T16:21:20Z</time>
      </trkpt>
      <trkpt lat="41.54712" lon="9.26913">
        <ele>24.17</ele>
        <time>2014-06-06T16:21:24Z</time>
      </trkpt>
      <trkpt lat="41.54798" lon="9.26938">
        <ele>22.25</ele>
        <time>2014-06-06T16:21:31Z</time>
      </trkpt>
      <trkpt lat="41.54943" lon="9.26978">
        <ele>19.84</ele>
        <time>2014-06-06T16:21:40Z</time>
      </trkpt>
      <trkpt lat="41.55151" lon="9.27039">
        <ele>21.77</ele>
        <time>2014-06-06T16:21:52Z</time>
      </trkpt>
      <trkpt lat="41.55309" lon="9.27084">
        <ele>23.21</ele>
        <time>2014-06-06T16:22:01Z</time>
      </trkpt>
      <trkpt lat="41.55479" lon="9.27135">
        <ele>20.32</ele>
        <time>2014-06-06T16:22:11Z</time>
      </trkpt>
      <trkpt lat="41.55652" lon="9.27185">
        <ele>18.4</ele>
        <time>2014-06-06T16:22:21Z</time>
      </trkpt>
      <trkpt lat="41.55843" lon="9.27242">
        <ele>23.21</ele>
        <time>2014-06-06T16:22:32Z</time>
      </trkpt>
      <trkpt lat="41.55981" lon="9.27271">
        <ele>21.77</ele>
        <time>2014-06-06T16:22:41Z</time>
      </trkpt>
      <trkpt lat="41.56139" lon="9.27289">
        <ele>17.44</ele>
        <time>2014-06-06T16:22:51Z</time>
      </trkpt>
      <trkpt lat="41.56257" lon="9.27303">
        <ele>12.15</ele>
        <time>2014-06-06T16:22:59Z</time>
      </trkpt>
      <trkpt lat="41.56425" lon="9.27324">
        <ele>8.79</ele>
        <time>2014-06-06T16:23:11Z</time>
      </trkpt>
      <trkpt lat="41.56582" lon="9.27345">
        <ele>5.42</ele>
        <time>2014-06-06T16:23:24Z</time>
      </trkpt>
      <trkpt lat="41.5665" lon="9.27355">
        <ele>3.5</ele>
        <time>2014-06-06T16:23:31Z</time>
      </trkpt>
      <trkpt lat="41.56654" lon="9.27357">
        <ele>3.98</ele>
        <time>2014-06-06T16:23:32Z</time>
      </trkpt>
      <trkpt lat="41.56656" lon="9.27358">
        <ele>3.98</ele>
        <time>2014-06-06T16:23:33Z</time>
      </trkpt>
      <trkpt lat="41.56658" lon="9.2736">
        <ele>4.46</ele>
        <time>2014-06-06T16:23:34Z</time>
      </trkpt>
      <trkpt lat="41.56659" lon="9.27361">
        <ele>5.42</ele>
        <time>2014-06-06T16:23:35Z</time>
      </trkpt>
      <trkpt lat="41.56661" lon="9.27362">
        <ele>4.94</ele>
        <time>2014-06-06T16:23:36Z</time>
      </trkpt>
      <trkpt lat="41.56662" lon="9.27364">
        <ele>4.94</ele>
        <time>2014-06-06T16:23:37Z</time>
      </trkpt>
      <trkpt lat="41.56664" lon="9.27366">
        <ele>4.46</ele>
        <time>2014-06-06T16:23:50Z</time>
      </trkpt>
      <trkpt lat="41.5667" lon="9.2737">
        <ele>5.91</ele>
        <time>2014-06-06T16:24:08Z</time>
      </trkpt>
      <trkpt lat="41.5668" lon="9.27377">
        <ele>5.42</ele>
        <time>2014-06-06T16:24:35Z</time>
      </trkpt>
      <trkpt lat="41.56681" lon="9.2738">
        <ele>5.91</ele>
        <time>2014-06-06T16:24:36Z</time>
      </trkpt>
      <trkpt lat="41.56681" lon="9.27408">
        <ele>11.19</ele>
        <time>2014-06-06T16:24:46Z</time>
      </trkpt>
      <trkpt lat="41.56682" lon="9.27404">
        <ele>11.67</ele>
        <time>2014-06-06T16:25:15Z</time>
      </trkpt>
      <trkpt lat="41.56681" lon="9.27396">
        <ele>11.19</ele>
        <time>2014-06-06T16:25:37Z</time>
      </trkpt>
      <trkpt lat="41.56664" lon="9.27393">
        <ele>10.71</ele>
        <time>2014-06-06T16:26:13Z</time>
      </trkpt>
      <trkpt lat="41.56655" lon="9.27397">
        <ele>11.19</ele>
        <time>2014-06-06T16:26:43Z</time>
      </trkpt>
      <trkpt lat="41.56654" lon="9.27407">
        <ele>12.15</ele>
        <time>2014-06-06T16:27:25Z</time>
      </trkpt>
      <trkpt lat="41.56658" lon="9.27397">
        <ele>13.12</ele>
        <time>2014-06-06T16:28:07Z</time>
      </trkpt>
      <trkpt lat="41.56655" lon="9.27397">
        <ele>14.56</ele>
        <time>2014-06-06T16:28:47Z</time>
      </trkpt>
      <trkpt lat="41.56655" lon="9.27397">
        <ele>14.56</ele>
        <time>2014-06-06T16:29:40Z</time>
      </trkpt>
      <trkpt lat="41.56655" lon="9.27398">
        <ele>15.52</ele>
        <time>2014-06-06T16:30:22Z</time>
      </trkpt>
      <trkpt lat="41.56655" lon="9.27415">
        <ele>25.61</ele>
        <time>2014-06-06T16:31:04Z</time>
      </trkpt>
      <trkpt lat="41.56662" lon="9.2742">
        <ele>34.74</ele>
        <time>2014-06-06T16:31:32Z</time>
      </trkpt>
      <trkpt lat="41.56667" lon="9.27423">
        <ele>34.74</ele>
        <time>2014-06-06T16:31:34Z</time>
      </trkpt>
      <trkpt lat="41.56678" lon="9.27435">
        <ele>38.11</ele>
        <time>2014-06-06T16:31:50Z</time>
      </trkpt>
      <trkpt lat="41.56674" lon="9.27436">
        <ele>46.76</ele>
        <time>2014-06-06T16:32:29Z</time>
      </trkpt>
      <trkpt lat="41.56672" lon="9.27436">
        <ele>47.72</ele>
        <time>2014-06-06T16:33:02Z</time>
      </trkpt>
      <trkpt lat="41.56672" lon="9.27436">
        <ele>47.24</ele>
        <time>2014-06-06T16:33:35Z</time>
      </trkpt>
      <trkpt lat="41.56681" lon="9.27392">
        <ele>40.99</ele>
        <time>2014-06-06T16:33:45Z</time>
      </trkpt>
      <trkpt lat="41.56685" lon="9.27386">
        <ele>38.59</ele>
        <time>2014-06-06T16:33:47Z</time>
      </trkpt>
      <trkpt lat="41.56696" lon="9.27382">
        <ele>35.71</ele>
        <time>2014-06-06T16:33:50Z</time>
      </trkpt>
      <trkpt lat="41.56703" lon="9.27383">
        <ele>35.23</ele>
        <time>2014-06-06T16:33:51Z</time>
      </trkpt>
      <trkpt lat="41.56713" lon="9.27384">
        <ele>33.78</ele>
        <time>2014-06-06T16:33:52Z</time>
      </trkpt>
      <trkpt lat="41.56805" lon="9.27394">
        <ele>28.5</ele>
        <time>2014-06-06T16:33:59Z</time>
      </trkpt>
      <trkpt lat="41.56969" lon="9.27412">
        <ele>24.17</ele>
        <time>2014-06-06T16:34:09Z</time>
      </trkpt>
      <trkpt lat="41.57036" lon="9.27415">
        <ele>21.29</ele>
        <time>2014-06-06T16:34:15Z</time>
      </trkpt>
      <trkpt lat="41.57129" lon="9.27421">
        <ele>10.23</ele>
        <time>2014-06-06T16:34:25Z</time>
      </trkpt>
      <trkpt lat="41.57179" lon="9.2743">
        <ele>11.67</ele>
        <time>2014-06-06T16:34:32Z</time>
      </trkpt>
      <trkpt lat="41.57196" lon="9.27438">
        <ele>9.75</ele>
        <time>2014-06-06T16:34:36Z</time>
      </trkpt>
      <trkpt lat="41.57205" lon="9.27437">
        <ele>9.27</ele>
        <time>2014-06-06T16:34:37Z</time>
      </trkpt>
      <trkpt lat="41.57226" lon="9.27431">
        <ele>7.83</ele>
        <time>2014-06-06T16:34:39Z</time>
      </trkpt>
      <trkpt lat="41.5724" lon="9.27432">
        <ele>7.35</ele>
        <time>2014-06-06T16:34:40Z</time>
      </trkpt>
      <trkpt lat="41.57369" lon="9.2745">
        <ele>5.91</ele>
        <time>2014-06-06T16:34:47Z</time>
      </trkpt>
      <trkpt lat="41.57517" lon="9.27468">
        <ele>1.58</ele>
        <time>2014-06-06T16:34:55Z</time>
      </trkpt>
      <trkpt lat="41.57658" lon="9.27483">
        <ele>-4.67</ele>
        <time>2014-06-06T16:35:04Z</time>
      </trkpt>
      <trkpt lat="41.57692" lon="9.27488">
        <ele>-5.15</ele>
        <time>2014-06-06T16:35:07Z</time>
      </trkpt>
      <trkpt lat="41.57702" lon="9.27492">
        <ele>-2.75</ele>
        <time>2014-06-06T16:35:08Z</time>
      </trkpt>
      <trkpt lat="41.57711" lon="9.27497">
        <ele>-1.3</ele>
        <time>2014-06-06T16:35:09Z</time>
      </trkpt>
      <trkpt lat="41.57718" lon="9.27503">
        <ele>0.14</ele>
        <time>2014-06-06T16:35:10Z</time>
      </trkpt>
      <trkpt lat="41.57725" lon="9.27511">
        <ele>0.62</ele>
        <time>2014-06-06T16:35:11Z</time>
      </trkpt>
      <trkpt lat="41.57738" lon="9.2752">
        <ele>2.06</ele>
        <time>2014-06-06T16:35:13Z</time>
      </trkpt>
      <trkpt lat="41.57746" lon="9.27521">
        <ele>2.06</ele>
        <time>2014-06-06T16:35:14Z</time>
      </trkpt>
      <trkpt lat="41.57754" lon="9.27518">
        <ele>2.06</ele>
        <time>2014-06-06T16:35:15Z</time>
      </trkpt>
      <trkpt lat="41.57762" lon="9.27514">
        <ele>2.06</ele>
        <time>2014-06-06T16:35:16Z</time>
      </trkpt>
      <trkpt lat="41.57769" lon="9.27509">
        <ele>2.06</ele>
        <time>2014-06-06T16:35:17Z</time>
      </trkpt>
      <trkpt lat="41.57785" lon="9.27503">
        <ele>2.54</ele>
        <time>2014-06-06T16:35:19Z</time>
      </trkpt>
      <trkpt lat="41.57797" lon="9.27504">
        <ele>1.58</ele>
        <time>2014-06-06T16:35:20Z</time>
      </trkpt>
      <trkpt lat="41.57883" lon="9.27514">
        <ele>0.62</ele>
        <time>2014-06-06T16:35:27Z</time>
      </trkpt>
      <trkpt lat="41.57982" lon="9.27533">
        <ele>12.63</ele>
        <time>2014-06-06T16:35:36Z</time>
      </trkpt>
      <trkpt lat="41.58031" lon="9.27542">
        <ele>14.56</ele>
        <time>2014-06-06T16:35:41Z</time>
      </trkpt>
      <trkpt lat="41.58038" lon="9.27548">
        <ele>14.56</ele>
        <time>2014-06-06T16:35:42Z</time>
      </trkpt>
      <trkpt lat="41.58044" lon="9.27555">
        <ele>15.04</ele>
        <time>2014-06-06T16:35:43Z</time>
      </trkpt>
      <trkpt lat="41.58049" lon="9.27564">
        <ele>14.56</ele>
        <time>2014-06-06T16:35:44Z</time>
      </trkpt>
      <trkpt lat="41.58055" lon="9.27574">
        <ele>14.08</ele>
        <time>2014-06-06T16:35:45Z</time>
      </trkpt>
      <trkpt lat="41.58137" lon="9.27687">
        <ele>11.19</ele>
        <time>2014-06-06T16:35:56Z</time>
      </trkpt>
      <trkpt lat="41.58263" lon="9.27853">
        <ele>16</ele>
        <time>2014-06-06T16:36:09Z</time>
      </trkpt>
      <trkpt lat="41.58362" lon="9.27986">
        <ele>15.04</ele>
        <time>2014-06-06T16:36:21Z</time>
      </trkpt>
      <trkpt lat="41.58469" lon="9.281">
        <ele>13.6</ele>
        <time>2014-06-06T16:36:33Z</time>
      </trkpt>
      <trkpt lat="41.58589" lon="9.28202">
        <ele>11.19</ele>
        <time>2014-06-06T16:36:46Z</time>
      </trkpt>
      <trkpt lat="41.58605" lon="9.28213">
        <ele>12.63</ele>
        <time>2014-06-06T16:36:48Z</time>
      </trkpt>
      <trkpt lat="41.58657" lon="9.28243">
        <ele>12.63</ele>
        <time>2014-06-06T16:36:53Z</time>
      </trkpt>
      <trkpt lat="41.58667" lon="9.28246">
        <ele>12.63</ele>
        <time>2014-06-06T16:36:54Z</time>
      </trkpt>
      <trkpt lat="41.58677" lon="9.28248">
        <ele>12.63</ele>
        <time>2014-06-06T16:36:55Z</time>
      </trkpt>
      <trkpt lat="41.58742" lon="9.28252">
        <ele>12.15</ele>
        <time>2014-06-06T16:37:02Z</time>
      </trkpt>
      <trkpt lat="41.5875" lon="9.28255">
        <ele>11.67</ele>
        <time>2014-06-06T16:37:03Z</time>
      </trkpt>
      <trkpt lat="41.58756" lon="9.28259">
        <ele>11.67</ele>
        <time>2014-06-06T16:37:04Z</time>
      </trkpt>
      <trkpt lat="41.58762" lon="9.28265">
        <ele>11.19</ele>
        <time>2014-06-06T16:37:05Z</time>
      </trkpt>
      <trkpt lat="41.58768" lon="9.28271">
        <ele>10.71</ele>
        <time>2014-06-06T16:37:06Z</time>
      </trkpt>
      <trkpt lat="41.58772" lon="9.28277">
        <ele>10.23</ele>
        <time>2014-06-06T16:37:07Z</time>
      </trkpt>
      <trkpt lat="41.58828" lon="9.28347">
        <ele>8.79</ele>
        <time>2014-06-06T16:37:18Z</time>
      </trkpt>
      <trkpt lat="41.58835" lon="9.28358">
        <ele>11.19</ele>
        <time>2014-06-06T16:37:25Z</time>
      </trkpt>
      <trkpt lat="41.58847" lon="9.28374">
        <ele>14.08</ele>
        <time>2014-06-06T16:37:33Z</time>
      </trkpt>
      <trkpt lat="41.58857" lon="9.28383">
        <ele>15.52</ele>
        <time>2014-06-06T16:37:36Z</time>
      </trkpt>
      <trkpt lat="41.58861" lon="9.28386">
        <ele>16.48</ele>
        <time>2014-06-06T16:37:37Z</time>
      </trkpt>
      <trkpt lat="41.58883" lon="9.28411">
        <ele>15.52</ele>
        <time>2014-06-06T16:37:43Z</time>
      </trkpt>
      <trkpt lat="41.58889" lon="9.28417">
        <ele>15.52</ele>
        <time>2014-06-06T16:37:45Z</time>
      </trkpt>
      <trkpt lat="41.58894" lon="9.28416">
        <ele>15.04</ele>
        <time>2014-06-06T16:37:46Z</time>
      </trkpt>
      <trkpt lat="41.58898" lon="9.28412">
        <ele>14.08</ele>
        <time>2014-06-06T16:37:47Z</time>
      </trkpt>
      <trkpt lat="41.58945" lon="9.28362">
        <ele>11.67</ele>
        <time>2014-06-06T16:37:57Z</time>
      </trkpt>
      <trkpt lat="41.59" lon="9.28299">
        <ele>6.87</ele>
        <time>2014-06-06T16:38:10Z</time>
      </trkpt>
      <trkpt lat="41.59006" lon="9.28294">
        <ele>5.91</ele>
        <time>2014-06-06T16:38:12Z</time>
      </trkpt>
      <trkpt lat="41.59022" lon="9.28284">
        <ele>4.94</ele>
        <time>2014-06-06T16:38:16Z</time>
      </trkpt>
      <trkpt lat="41.59028" lon="9.2828">
        <ele>4.46</ele>
        <time>2014-06-06T16:38:17Z</time>
      </trkpt>
      <trkpt lat="41.59043" lon="9.28272">
        <ele>3.98</ele>
        <time>2014-06-06T16:38:20Z</time>
      </trkpt>
      <trkpt lat="41.5905" lon="9.28272">
        <ele>4.46</ele>
        <time>2014-06-06T16:38:21Z</time>
      </trkpt>
      <trkpt lat="41.59056" lon="9.28273">
        <ele>3.98</ele>
        <time>2014-06-06T16:38:22Z</time>
      </trkpt>
      <trkpt lat="41.59062" lon="9.28273">
        <ele>3.02</ele>
        <time>2014-06-06T16:38:23Z</time>
      </trkpt>
      <trkpt lat="41.59068" lon="9.28275">
        <ele>3.02</ele>
        <time>2014-06-06T16:38:24Z</time>
      </trkpt>
      <trkpt lat="41.59073" lon="9.28278">
        <ele>2.06</ele>
        <time>2014-06-06T16:38:25Z</time>
      </trkpt>
      <trkpt lat="41.59078" lon="9.28281">
        <ele>2.06</ele>
        <time>2014-06-06T16:38:26Z</time>
      </trkpt>
      <trkpt lat="41.59083" lon="9.28287">
        <ele>2.06</ele>
        <time>2014-06-06T16:38:27Z</time>
      </trkpt>
      <trkpt lat="41.59088" lon="9.28294">
        <ele>2.54</ele>
        <time>2014-06-06T16:38:28Z</time>
      </trkpt>
      <trkpt lat="41.59093" lon="9.28301">
        <ele>2.54</ele>
        <time>2014-06-06T16:38:29Z</time>
      </trkpt>
      <trkpt lat="41.5911" lon="9.28321">
        <ele>2.54</ele>
        <time>2014-06-06T16:38:32Z</time>
      </trkpt>
      <trkpt lat="41.59117" lon="9.28327">
        <ele>2.06</ele>
        <time>2014-06-06T16:38:33Z</time>
      </trkpt>
      <trkpt lat="41.59125" lon="9.28332">
        <ele>2.06</ele>
        <time>2014-06-06T16:38:34Z</time>
      </trkpt>
      <trkpt lat="41.59233" lon="9.28375">
        <ele>1.1</ele>
        <time>2014-06-06T16:38:46Z</time>
      </trkpt>
      <trkpt lat="41.59351" lon="9.28391">
        <ele>-4.19</ele>
        <time>2014-06-06T16:38:58Z</time>
      </trkpt>
      <trkpt lat="41.59467" lon="9.28398">
        <ele>-3.71</ele>
        <time>2014-06-06T16:39:09Z</time>
      </trkpt>
      <trkpt lat="41.59534" lon="9.284">
        <ele>3.5</ele>
        <time>2014-06-06T16:39:15Z</time>
      </trkpt>
      <trkpt lat="41.59544" lon="9.28398">
        <ele>4.46</ele>
        <time>2014-06-06T16:39:16Z</time>
      </trkpt>
      <trkpt lat="41.59552" lon="9.28393">
        <ele>5.91</ele>
        <time>2014-06-06T16:39:17Z</time>
      </trkpt>
      <trkpt lat="41.5956" lon="9.28387">
        <ele>6.39</ele>
        <time>2014-06-06T16:39:18Z</time>
      </trkpt>
      <trkpt lat="41.59568" lon="9.2838">
        <ele>6.39</ele>
        <time>2014-06-06T16:39:19Z</time>
      </trkpt>
      <trkpt lat="41.59576" lon="9.28371">
        <ele>6.87</ele>
        <time>2014-06-06T16:39:20Z</time>
      </trkpt>
      <trkpt lat="41.59581" lon="9.28361">
        <ele>7.35</ele>
        <time>2014-06-06T16:39:21Z</time>
      </trkpt>
      <trkpt lat="41.59587" lon="9.2835">
        <ele>7.35</ele>
        <time>2014-06-06T16:39:22Z</time>
      </trkpt>
      <trkpt lat="41.59592" lon="9.28338">
        <ele>7.35</ele>
        <time>2014-06-06T16:39:23Z</time>
      </trkpt>
      <trkpt lat="41.59666" lon="9.28177">
        <ele>6.87</ele>
        <time>2014-06-06T16:39:36Z</time>
      </trkpt>
      <trkpt lat="41.59681" lon="9.28127">
        <ele>6.39</ele>
        <time>2014-06-06T16:39:40Z</time>
      </trkpt>
      <trkpt lat="41.59683" lon="9.28113">
        <ele>7.35</ele>
        <time>2014-06-06T16:39:41Z</time>
      </trkpt>
      <trkpt lat="41.59684" lon="9.281">
        <ele>5.91</ele>
        <time>2014-06-06T16:39:42Z</time>
      </trkpt>
      <trkpt lat="41.59684" lon="9.28088">
        <ele>5.91</ele>
        <time>2014-06-06T16:39:43Z</time>
      </trkpt>
      <trkpt lat="41.59683" lon="9.28074">
        <ele>4.94</ele>
        <time>2014-06-06T16:39:44Z</time>
      </trkpt>
      <trkpt lat="41.59682" lon="9.28062">
        <ele>5.42</ele>
        <time>2014-06-06T16:39:45Z</time>
      </trkpt>
      <trkpt lat="41.5968" lon="9.28049">
        <ele>4.94</ele>
        <time>2014-06-06T16:39:46Z</time>
      </trkpt>
      <trkpt lat="41.59678" lon="9.28038">
        <ele>4.94</ele>
        <time>2014-06-06T16:39:47Z</time>
      </trkpt>
      <trkpt lat="41.59675" lon="9.28028">
        <ele>4.94</ele>
        <time>2014-06-06T16:39:48Z</time>
      </trkpt>
      <trkpt lat="41.5964" lon="9.27941">
        <ele>5.42</ele>
        <time>2014-06-06T16:39:59Z</time>
      </trkpt>
      <trkpt lat="41.59638" lon="9.27934">
        <ele>4.46</ele>
        <time>2014-06-06T16:40:00Z</time>
      </trkpt>
      <trkpt lat="41.59638" lon="9.27926">
        <ele>3.5</ele>
        <time>2014-06-06T16:40:01Z</time>
      </trkpt>
      <trkpt lat="41.5964" lon="9.27917">
        <ele>3.98</ele>
        <time>2014-06-06T16:40:02Z</time>
      </trkpt>
      <trkpt lat="41.59642" lon="9.27909">
        <ele>4.46</ele>
        <time>2014-06-06T16:40:03Z</time>
      </trkpt>
      <trkpt lat="41.59645" lon="9.279">
        <ele>4.46</ele>
        <time>2014-06-06T16:40:04Z</time>
      </trkpt>
      <trkpt lat="41.59647" lon="9.2789">
        <ele>3.98</ele>
        <time>2014-06-06T16:40:05Z</time>
      </trkpt>
      <trkpt lat="41.59648" lon="9.27879">
        <ele>4.46</ele>
        <time>2014-06-06T16:40:06Z</time>
      </trkpt>
      <trkpt lat="41.59648" lon="9.27867">
        <ele>4.94</ele>
        <time>2014-06-06T16:40:07Z</time>
      </trkpt>
      <trkpt lat="41.59647" lon="9.27856">
        <ele>4.46</ele>
        <time>2014-06-06T16:40:08Z</time>
      </trkpt>
      <trkpt lat="41.59647" lon="9.27844">
        <ele>4.94</ele>
        <time>2014-06-06T16:40:09Z</time>
      </trkpt>
      <trkpt lat="41.59647" lon="9.27821">
        <ele>4.46</ele>
        <time>2014-06-06T16:40:11Z</time>
      </trkpt>
      <trkpt lat="41.59648" lon="9.2781">
        <ele>3.98</ele>
        <time>2014-06-06T16:40:12Z</time>
      </trkpt>
      <trkpt lat="41.59652" lon="9.27801">
        <ele>4.46</ele>
        <time>2014-06-06T16:40:13Z</time>
      </trkpt>
      <trkpt lat="41.59659" lon="9.27793">
        <ele>4.94</ele>
        <time>2014-06-06T16:40:14Z</time>
      </trkpt>
      <trkpt lat="41.59665" lon="9.27787">
        <ele>4.46</ele>
        <time>2014-06-06T16:40:15Z</time>
      </trkpt>
      <trkpt lat="41.59671" lon="9.27782">
        <ele>4.94</ele>
        <time>2014-06-06T16:40:16Z</time>
      </trkpt>
      <trkpt lat="41.59719" lon="9.27754">
        <ele>5.42</ele>
        <time>2014-06-06T16:40:22Z</time>
      </trkpt>
      <trkpt lat="41.5973" lon="9.27751">
        <ele>5.91</ele>
        <time>2014-06-06T16:40:23Z</time>
      </trkpt>
      <trkpt lat="41.59742" lon="9.2775">
        <ele>5.91</ele>
        <time>2014-06-06T16:40:24Z</time>
      </trkpt>
      <trkpt lat="41.59753" lon="9.2775">
        <ele>5.91</ele>
        <time>2014-06-06T16:40:25Z</time>
      </trkpt>
      <trkpt lat="41.59765" lon="9.27752">
        <ele>5.91</ele>
        <time>2014-06-06T16:40:26Z</time>
      </trkpt>
      <trkpt lat="41.59777" lon="9.27754">
        <ele>6.39</ele>
        <time>2014-06-06T16:40:27Z</time>
      </trkpt>
      <trkpt lat="41.59789" lon="9.27757">
        <ele>5.91</ele>
        <time>2014-06-06T16:40:28Z</time>
      </trkpt>
      <trkpt lat="41.59932" lon="9.27797">
        <ele>6.39</ele>
        <time>2014-06-06T16:40:39Z</time>
      </trkpt>
      <trkpt lat="41.60071" lon="9.27835">
        <ele>11.19</ele>
        <time>2014-06-06T16:40:49Z</time>
      </trkpt>
      <trkpt lat="41.60202" lon="9.27868">
        <ele>15.52</ele>
        <time>2014-06-06T16:40:58Z</time>
      </trkpt>
      <trkpt lat="41.60358" lon="9.2791">
        <ele>17.44</ele>
        <time>2014-06-06T16:41:10Z</time>
      </trkpt>
      <trkpt lat="41.60525" lon="9.27954">
        <ele>15.52</ele>
        <time>2014-06-06T16:41:23Z</time>
      </trkpt>
      <trkpt lat="41.60645" lon="9.27989">
        <ele>16</ele>
        <time>2014-06-06T16:41:35Z</time>
      </trkpt>
      <trkpt lat="41.60751" lon="9.28012">
        <ele>18.4</ele>
        <time>2014-06-06T16:41:47Z</time>
      </trkpt>
      <trkpt lat="41.60781" lon="9.28023">
        <ele>16.48</ele>
        <time>2014-06-06T16:41:53Z</time>
      </trkpt>
      <trkpt lat="41.60848" lon="9.28041">
        <ele>17.92</ele>
        <time>2014-06-06T16:41:59Z</time>
      </trkpt>
      <trkpt lat="41.60965" lon="9.2809">
        <ele>26.57</ele>
        <time>2014-06-06T16:42:08Z</time>
      </trkpt>
      <trkpt lat="41.61038" lon="9.28155">
        <ele>21.29</ele>
        <time>2014-06-06T16:42:15Z</time>
      </trkpt>
      <trkpt lat="41.61046" lon="9.28167">
        <ele>20.32</ele>
        <time>2014-06-06T16:42:16Z</time>
      </trkpt>
      <trkpt lat="41.61099" lon="9.28291">
        <ele>15.52</ele>
        <time>2014-06-06T16:42:25Z</time>
      </trkpt>
      <trkpt lat="41.61127" lon="9.28464">
        <ele>12.63</ele>
        <time>2014-06-06T16:42:36Z</time>
      </trkpt>
      <trkpt lat="41.61154" lon="9.28613">
        <ele>12.15</ele>
        <time>2014-06-06T16:42:46Z</time>
      </trkpt>
      <trkpt lat="41.61153" lon="9.28629">
        <ele>11.67</ele>
        <time>2014-06-06T16:42:47Z</time>
      </trkpt>
      <trkpt lat="41.61142" lon="9.28678">
        <ele>11.67</ele>
        <time>2014-06-06T16:42:52Z</time>
      </trkpt>
      <trkpt lat="41.61139" lon="9.28687">
        <ele>12.15</ele>
        <time>2014-06-06T16:42:53Z</time>
      </trkpt>
      <trkpt lat="41.61135" lon="9.28694">
        <ele>12.63</ele>
        <time>2014-06-06T16:42:54Z</time>
      </trkpt>
      <trkpt lat="41.61088" lon="9.28779">
        <ele>15.04</ele>
        <time>2014-06-06T16:43:02Z</time>
      </trkpt>
      <trkpt lat="41.61083" lon="9.28792">
        <ele>15.52</ele>
        <time>2014-06-06T16:43:03Z</time>
      </trkpt>
      <trkpt lat="41.6108" lon="9.28806">
        <ele>16</ele>
        <time>2014-06-06T16:43:04Z</time>
      </trkpt>
      <trkpt lat="41.61076" lon="9.28821">
        <ele>16.48</ele>
        <time>2014-06-06T16:43:05Z</time>
      </trkpt>
      <trkpt lat="41.61074" lon="9.28836">
        <ele>16.48</ele>
        <time>2014-06-06T16:43:06Z</time>
      </trkpt>
      <trkpt lat="41.61072" lon="9.28853">
        <ele>16.96</ele>
        <time>2014-06-06T16:43:07Z</time>
      </trkpt>
      <trkpt lat="41.61072" lon="9.28871">
        <ele>16.96</ele>
        <time>2014-06-06T16:43:08Z</time>
      </trkpt>
      <trkpt lat="41.61075" lon="9.28888">
        <ele>17.44</ele>
        <time>2014-06-06T16:43:09Z</time>
      </trkpt>
      <trkpt lat="41.61078" lon="9.28904">
        <ele>17.92</ele>
        <time>2014-06-06T16:43:10Z</time>
      </trkpt>
      <trkpt lat="41.61083" lon="9.28919">
        <ele>17.92</ele>
        <time>2014-06-06T16:43:11Z</time>
      </trkpt>
      <trkpt lat="41.61089" lon="9.28933">
        <ele>17.92</ele>
        <time>2014-06-06T16:43:12Z</time>
      </trkpt>
      <trkpt lat="41.61095" lon="9.28946">
        <ele>17.92</ele>
        <time>2014-06-06T16:43:13Z</time>
      </trkpt>
      <trkpt lat="41.61102" lon="9.28958">
        <ele>18.4</ele>
        <time>2014-06-06T16:43:14Z</time>
      </trkpt>
      <trkpt lat="41.61111" lon="9.28968">
        <ele>17.92</ele>
        <time>2014-06-06T16:43:15Z</time>
      </trkpt>
      <trkpt lat="41.61127" lon="9.28985">
        <ele>17.92</ele>
        <time>2014-06-06T16:43:17Z</time>
      </trkpt>
      <trkpt lat="41.61204" lon="9.29055">
        <ele>15.52</ele>
        <time>2014-06-06T16:43:26Z</time>
      </trkpt>
      <trkpt lat="41.61218" lon="9.29076">
        <ele>14.56</ele>
        <time>2014-06-06T16:43:28Z</time>
      </trkpt>
      <trkpt lat="41.61224" lon="9.29088">
        <ele>14.56</ele>
        <time>2014-06-06T16:43:29Z</time>
      </trkpt>
      <trkpt lat="41.61229" lon="9.29102">
        <ele>14.56</ele>
        <time>2014-06-06T16:43:30Z</time>
      </trkpt>
      <trkpt lat="41.61233" lon="9.29116">
        <ele>14.08</ele>
        <time>2014-06-06T16:43:31Z</time>
      </trkpt>
      <trkpt lat="41.61237" lon="9.2913">
        <ele>14.08</ele>
        <time>2014-06-06T16:43:32Z</time>
      </trkpt>
      <trkpt lat="41.61239" lon="9.29144">
        <ele>13.6</ele>
        <time>2014-06-06T16:43:33Z</time>
      </trkpt>
      <trkpt lat="41.61241" lon="9.29157">
        <ele>13.6</ele>
        <time>2014-06-06T16:43:34Z</time>
      </trkpt>
      <trkpt lat="41.61241" lon="9.2917">
        <ele>13.12</ele>
        <time>2014-06-06T16:43:35Z</time>
      </trkpt>
      <trkpt lat="41.61241" lon="9.29183">
        <ele>13.12</ele>
        <time>2014-06-06T16:43:36Z</time>
      </trkpt>
      <trkpt lat="41.6124" lon="9.29194">
        <ele>12.63</ele>
        <time>2014-06-06T16:43:37Z</time>
      </trkpt>
      <trkpt lat="41.61239" lon="9.29206">
        <ele>12.15</ele>
        <time>2014-06-06T16:43:38Z</time>
      </trkpt>
      <trkpt lat="41.61237" lon="9.29217">
        <ele>12.15</ele>
        <time>2014-06-06T16:43:39Z</time>
      </trkpt>
      <trkpt lat="41.61222" lon="9.29276">
        <ele>13.12</ele>
        <time>2014-06-06T16:43:45Z</time>
      </trkpt>
      <trkpt lat="41.61211" lon="9.29322">
        <ele>14.08</ele>
        <time>2014-06-06T16:43:50Z</time>
      </trkpt>
      <trkpt lat="41.6121" lon="9.29332">
        <ele>14.56</ele>
        <time>2014-06-06T16:43:51Z</time>
      </trkpt>
      <trkpt lat="41.61211" lon="9.29457">
        <ele>14.56</ele>
        <time>2014-06-06T16:44:02Z</time>
      </trkpt>
      <trkpt lat="41.61212" lon="9.29478">
        <ele>14.56</ele>
        <time>2014-06-06T16:44:04Z</time>
      </trkpt>
      <trkpt lat="41.61212" lon="9.29489">
        <ele>14.56</ele>
        <time>2014-06-06T16:44:05Z</time>
      </trkpt>
      <trkpt lat="41.61211" lon="9.295">
        <ele>14.08</ele>
        <time>2014-06-06T16:44:06Z</time>
      </trkpt>
      <trkpt lat="41.61194" lon="9.29586">
        <ele>15.04</ele>
        <time>2014-06-06T16:44:14Z</time>
      </trkpt>
      <trkpt lat="41.61166" lon="9.29666">
        <ele>18.88</ele>
        <time>2014-06-06T16:44:22Z</time>
      </trkpt>
      <trkpt lat="41.61164" lon="9.29672">
        <ele>19.84</ele>
        <time>2014-06-06T16:44:23Z</time>
      </trkpt>
      <trkpt lat="41.61162" lon="9.29678">
        <ele>19.84</ele>
        <time>2014-06-06T16:44:24Z</time>
      </trkpt>
      <trkpt lat="41.61157" lon="9.29715">
        <ele>21.29</ele>
        <time>2014-06-06T16:44:27Z</time>
      </trkpt>
      <trkpt lat="41.61158" lon="9.29731">
        <ele>21.77</ele>
        <time>2014-06-06T16:44:28Z</time>
      </trkpt>
      <trkpt lat="41.6116" lon="9.29749">
        <ele>22.73</ele>
        <time>2014-06-06T16:44:29Z</time>
      </trkpt>
      <trkpt lat="41.61163" lon="9.29767">
        <ele>23.21</ele>
        <time>2014-06-06T16:44:30Z</time>
      </trkpt>
      <trkpt lat="41.61168" lon="9.29786">
        <ele>23.69</ele>
        <time>2014-06-06T16:44:31Z</time>
      </trkpt>
      <trkpt lat="41.61174" lon="9.29803">
        <ele>24.65</ele>
        <time>2014-06-06T16:44:32Z</time>
      </trkpt>
      <trkpt lat="41.6118" lon="9.29818">
        <ele>25.13</ele>
        <time>2014-06-06T16:44:33Z</time>
      </trkpt>
      <trkpt lat="41.61186" lon="9.29831">
        <ele>24.65</ele>
        <time>2014-06-06T16:44:34Z</time>
      </trkpt>
      <trkpt lat="41.61192" lon="9.29842">
        <ele>24.65</ele>
        <time>2014-06-06T16:44:35Z</time>
      </trkpt>
      <trkpt lat="41.61215" lon="9.2989">
        <ele>27.53</ele>
        <time>2014-06-06T16:44:41Z</time>
      </trkpt>
      <trkpt lat="41.61267" lon="9.2998">
        <ele>30.42</ele>
        <time>2014-06-06T16:44:48Z</time>
      </trkpt>
      <trkpt lat="41.61278" lon="9.29991">
        <ele>30.9</ele>
        <time>2014-06-06T16:44:49Z</time>
      </trkpt>
      <trkpt lat="41.61324" lon="9.30028">
        <ele>32.34</ele>
        <time>2014-06-06T16:44:53Z</time>
      </trkpt>
      <trkpt lat="41.61342" lon="9.30047">
        <ele>33.78</ele>
        <time>2014-06-06T16:44:56Z</time>
      </trkpt>
      <trkpt lat="41.61344" lon="9.30051">
        <ele>35.23</ele>
        <time>2014-06-06T16:44:57Z</time>
      </trkpt>
      <trkpt lat="41.61339" lon="9.30081">
        <ele>42.92</ele>
        <time>2014-06-06T16:45:04Z</time>
      </trkpt>
      <trkpt lat="41.61394" lon="9.30129">
        <ele>52.05</ele>
        <time>2014-06-06T16:45:11Z</time>
      </trkpt>
      <trkpt lat="41.61404" lon="9.30136">
        <ele>53.49</ele>
        <time>2014-06-06T16:45:12Z</time>
      </trkpt>
      <trkpt lat="41.61477" lon="9.30122">
        <ele>53.97</ele>
        <time>2014-06-06T16:45:14Z</time>
      </trkpt>
      <trkpt lat="41.61658" lon="9.3007">
        <ele>49.16</ele>
        <time>2014-06-06T16:45:20Z</time>
      </trkpt>
      <trkpt lat="41.61672" lon="9.3008">
        <ele>48.68</ele>
        <time>2014-06-06T16:45:21Z</time>
      </trkpt>
      <trkpt lat="41.61687" lon="9.3009">
        <ele>48.2</ele>
        <time>2014-06-06T16:45:22Z</time>
      </trkpt>
      <trkpt lat="41.617" lon="9.30096">
        <ele>48.2</ele>
        <time>2014-06-06T16:45:23Z</time>
      </trkpt>
      <trkpt lat="41.61713" lon="9.301">
        <ele>49.16</ele>
        <time>2014-06-06T16:45:24Z</time>
      </trkpt>
      <trkpt lat="41.61726" lon="9.30104">
        <ele>48.68</ele>
        <time>2014-06-06T16:45:25Z</time>
      </trkpt>
      <trkpt lat="41.61735" lon="9.30104">
        <ele>48.2</ele>
        <time>2014-06-06T16:45:26Z</time>
      </trkpt>
      <trkpt lat="41.61745" lon="9.30102">
        <ele>48.2</ele>
        <time>2014-06-06T16:45:27Z</time>
      </trkpt>
      <trkpt lat="41.61751" lon="9.30101">
        <ele>48.2</ele>
        <time>2014-06-06T16:45:28Z</time>
      </trkpt>
      <trkpt lat="41.61756" lon="9.30099">
        <ele>47.72</ele>
        <time>2014-06-06T16:45:29Z</time>
      </trkpt>
      <trkpt lat="41.6176" lon="9.301">
        <ele>48.2</ele>
        <time>2014-06-06T16:45:30Z</time>
      </trkpt>
      <trkpt lat="41.61779" lon="9.30083">
        <ele>36.67</ele>
        <time>2014-06-06T16:45:40Z</time>
      </trkpt>
      <trkpt lat="41.61805" lon="9.30062">
        <ele>29.94</ele>
        <time>2014-06-06T16:45:44Z</time>
      </trkpt>
      <trkpt lat="41.61812" lon="9.30054">
        <ele>29.46</ele>
        <time>2014-06-06T16:45:45Z</time>
      </trkpt>
      <trkpt lat="41.61818" lon="9.30046">
        <ele>28.98</ele>
        <time>2014-06-06T16:45:46Z</time>
      </trkpt>
      <trkpt lat="41.61822" lon="9.30037">
        <ele>28.02</ele>
        <time>2014-06-06T16:45:47Z</time>
      </trkpt>
      <trkpt lat="41.61827" lon="9.30029">
        <ele>27.05</ele>
        <time>2014-06-06T16:45:48Z</time>
      </trkpt>
      <trkpt lat="41.61856" lon="9.29962">
        <ele>24.17</ele>
        <time>2014-06-06T16:45:55Z</time>
      </trkpt>
      <trkpt lat="41.61879" lon="9.29919">
        <ele>23.21</ele>
        <time>2014-06-06T16:45:59Z</time>
      </trkpt>
      <trkpt lat="41.61893" lon="9.299">
        <ele>22.73</ele>
        <time>2014-06-06T16:46:01Z</time>
      </trkpt>
      <trkpt lat="41.61901" lon="9.29892">
        <ele>22.25</ele>
        <time>2014-06-06T16:46:02Z</time>
      </trkpt>
      <trkpt lat="41.61909" lon="9.29885">
        <ele>22.25</ele>
        <time>2014-06-06T16:46:03Z</time>
      </trkpt>
      <trkpt lat="41.61925" lon="9.29877">
        <ele>20.81</ele>
        <time>2014-06-06T16:46:05Z</time>
      </trkpt>
      <trkpt lat="41.61943" lon="9.29872">
        <ele>20.81</ele>
        <time>2014-06-06T16:46:07Z</time>
      </trkpt>
      <trkpt lat="41.61962" lon="9.29868">
        <ele>18.4</ele>
        <time>2014-06-06T16:46:09Z</time>
      </trkpt>
      <trkpt lat="41.62004" lon="9.29864">
        <ele>16.48</ele>
        <time>2014-06-06T16:46:16Z</time>
      </trkpt>
      <trkpt lat="41.62029" lon="9.29866">
        <ele>18.88</ele>
        <time>2014-06-06T16:46:25Z</time>
      </trkpt>
      <trkpt lat="41.62051" lon="9.29861">
        <ele>19.36</ele>
        <time>2014-06-06T16:46:29Z</time>
      </trkpt>
      <trkpt lat="41.62059" lon="9.29861">
        <ele>19.84</ele>
        <time>2014-06-06T16:46:30Z</time>
      </trkpt>
      <trkpt lat="41.62068" lon="9.29861">
        <ele>19.36</ele>
        <time>2014-06-06T16:46:31Z</time>
      </trkpt>
      <trkpt lat="41.62093" lon="9.29867">
        <ele>20.32</ele>
        <time>2014-06-06T16:46:34Z</time>
      </trkpt>
      <trkpt lat="41.62159" lon="9.29906">
        <ele>20.81</ele>
        <time>2014-06-06T16:46:44Z</time>
      </trkpt>
      <trkpt lat="41.62171" lon="9.29914">
        <ele>20.81</ele>
        <time>2014-06-06T16:46:46Z</time>
      </trkpt>
      <trkpt lat="41.62236" lon="9.29968">
        <ele>27.05</ele>
        <time>2014-06-06T16:46:57Z</time>
      </trkpt>
      <trkpt lat="41.62246" lon="9.29977">
        <ele>28.5</ele>
        <time>2014-06-06T16:46:59Z</time>
      </trkpt>
      <trkpt lat="41.62308" lon="9.30017">
        <ele>28.5</ele>
        <time>2014-06-06T16:47:06Z</time>
      </trkpt>
      <trkpt lat="41.62368" lon="9.30051">
        <ele>28.98</ele>
        <time>2014-06-06T16:47:14Z</time>
      </trkpt>
      <trkpt lat="41.6237" lon="9.30049">
        <ele>28.5</ele>
        <time>2014-06-06T16:47:15Z</time>
      </trkpt>
      <trkpt lat="41.6237" lon="9.30042">
        <ele>27.53</ele>
        <time>2014-06-06T16:47:16Z</time>
      </trkpt>
      <trkpt lat="41.62366" lon="9.30029">
        <ele>27.05</ele>
        <time>2014-06-06T16:47:19Z</time>
      </trkpt>
      <trkpt lat="41.62357" lon="9.3001">
        <ele>28.5</ele>
        <time>2014-06-06T16:47:31Z</time>
      </trkpt>
      <trkpt lat="41.62356" lon="9.3001">
        <ele>29.46</ele>
        <time>2014-06-06T16:48:00Z</time>
      </trkpt>
      <trkpt lat="41.62357" lon="9.3001">
        <ele>28.98</ele>
        <time>2014-06-06T16:48:32Z</time>
      </trkpt>
      <trkpt lat="41.62357" lon="9.30009">
        <ele>29.46</ele>
        <time>2014-06-06T16:50:05Z</time>
      </trkpt>
      <trkpt lat="41.62357" lon="9.30009">
        <ele>28.98</ele>
        <time>2014-06-06T16:51:48Z</time>
      </trkpt>
      <trkpt lat="41.62357" lon="9.30009">
        <ele>28.98</ele>
        <time>2014-06-06T16:52:37Z</time>
      </trkpt>
      <trkpt lat="41.62339" lon="9.3">
        <ele>29.46</ele>
        <time>2014-06-06T16:52:41Z</time>
      </trkpt>
      <trkpt lat="41.62295" lon="9.29975">
        <ele>28.5</ele>
        <time>2014-06-06T16:52:50Z</time>
      </trkpt>
      <trkpt lat="41.6229" lon="9.29973">
        <ele>28.02</ele>
        <time>2014-06-06T16:52:52Z</time>
      </trkpt>
      <trkpt lat="41.62288" lon="9.29973">
        <ele>27.05</ele>
        <time>2014-06-06T16:52:53Z</time>
      </trkpt>
      <trkpt lat="41.62285" lon="9.29973">
        <ele>27.05</ele>
        <time>2014-06-06T16:52:54Z</time>
      </trkpt>
      <trkpt lat="41.62284" lon="9.29974">
        <ele>26.57</ele>
        <time>2014-06-06T16:52:55Z</time>
      </trkpt>
      <trkpt lat="41.62279" lon="9.29975">
        <ele>25.61</ele>
        <time>2014-06-06T16:53:01Z</time>
      </trkpt>
      <trkpt lat="41.62274" lon="9.29973">
        <ele>26.09</ele>
        <time>2014-06-06T16:53:02Z</time>
      </trkpt>
      <trkpt lat="41.62257" lon="9.29961">
        <ele>26.09</ele>
        <time>2014-06-06T16:53:05Z</time>
      </trkpt>
      <trkpt lat="41.62254" lon="9.29957">
        <ele>26.57</ele>
        <time>2014-06-06T16:53:06Z</time>
      </trkpt>
      <trkpt lat="41.6225" lon="9.29954">
        <ele>26.57</ele>
        <time>2014-06-06T16:53:07Z</time>
      </trkpt>
      <trkpt lat="41.62248" lon="9.29954">
        <ele>26.57</ele>
        <time>2014-06-06T16:53:08Z</time>
      </trkpt>
      <trkpt lat="41.62246" lon="9.29971">
        <ele>23.21</ele>
        <time>2014-06-06T16:53:16Z</time>
      </trkpt>
      <trkpt lat="41.62248" lon="9.29973">
        <ele>23.21</ele>
        <time>2014-06-06T16:53:17Z</time>
      </trkpt>
      <trkpt lat="41.62264" lon="9.29989">
        <ele>18.88</ele>
        <time>2014-06-06T16:53:29Z</time>
      </trkpt>
      <trkpt lat="41.62272" lon="9.2999">
        <ele>15.52</ele>
        <time>2014-06-06T16:53:40Z</time>
      </trkpt>
      <trkpt lat="41.62275" lon="9.29989">
        <ele>12.63</ele>
        <time>2014-06-06T16:54:14Z</time>
      </trkpt>
      <trkpt lat="41.62271" lon="9.29988">
        <ele>9.27</ele>
        <time>2014-06-06T16:54:57Z</time>
      </trkpt>
      <trkpt lat="41.6227" lon="9.29988">
        <ele>9.27</ele>
        <time>2014-06-06T16:56:19Z</time>
      </trkpt>
      <trkpt lat="41.6227" lon="9.29988">
        <ele>9.75</ele>
        <time>2014-06-06T16:57:33Z</time>
      </trkpt>
      <trkpt lat="41.6227" lon="9.29988">
        <ele>10.23</ele>
        <time>2014-06-06T16:58:46Z</time>
      </trkpt>
      <trkpt lat="41.6227" lon="9.29988">
        <ele>10.71</ele>
        <time>2014-06-06T16:59:58Z</time>
      </trkpt>
      <trkpt lat="41.6227" lon="9.29988">
        <ele>10.71</ele>
        <time>2014-06-06T17:01:00Z</time>
      </trkpt>
      <trkpt lat="41.62266" lon="9.29993">
        <ele>10.71</ele>
        <time>2014-06-06T17:01:27Z</time>
      </trkpt>
      <trkpt lat="41.62248" lon="9.29972">
        <ele>11.19</ele>
        <time>2014-06-06T17:01:35Z</time>
      </trkpt>
      <trkpt lat="41.62245" lon="9.29969">
        <ele>11.19</ele>
        <time>2014-06-06T17:01:36Z</time>
      </trkpt>
      <trkpt lat="41.62243" lon="9.29966">
        <ele>11.19</ele>
        <time>2014-06-06T17:01:37Z</time>
      </trkpt>
      <trkpt lat="41.62237" lon="9.29954">
        <ele>12.63</ele>
        <time>2014-06-06T17:01:46Z</time>
      </trkpt>
      <trkpt lat="41.62235" lon="9.2995">
        <ele>13.12</ele>
        <time>2014-06-06T17:02:02Z</time>
      </trkpt>
      <trkpt lat="41.62232" lon="9.29945">
        <ele>13.12</ele>
        <time>2014-06-06T17:02:03Z</time>
      </trkpt>
      <trkpt lat="41.62228" lon="9.29941">
        <ele>13.6</ele>
        <time>2014-06-06T17:02:04Z</time>
      </trkpt>
      <trkpt lat="41.62223" lon="9.29937">
        <ele>14.56</ele>
        <time>2014-06-06T17:02:11Z</time>
      </trkpt>
      <trkpt lat="41.62217" lon="9.29933">
        <ele>14.08</ele>
        <time>2014-06-06T17:02:22Z</time>
      </trkpt>
      <trkpt lat="41.62198" lon="9.29922">
        <ele>15.52</ele>
        <time>2014-06-06T17:02:26Z</time>
      </trkpt>
      <trkpt lat="41.62165" lon="9.29904">
        <ele>19.84</ele>
        <time>2014-06-06T17:02:35Z</time>
      </trkpt>
      <trkpt lat="41.62125" lon="9.29882">
        <ele>23.69</ele>
        <time>2014-06-06T17:02:42Z</time>
      </trkpt>
      <trkpt lat="41.62083" lon="9.29862">
        <ele>25.61</ele>
        <time>2014-06-06T17:02:46Z</time>
      </trkpt>
      <trkpt lat="41.62053" lon="9.29861">
        <ele>26.09</ele>
        <time>2014-06-06T17:02:52Z</time>
      </trkpt>
      <trkpt lat="41.6205" lon="9.29864">
        <ele>25.13</ele>
        <time>2014-06-06T17:02:53Z</time>
      </trkpt>
      <trkpt lat="41.62047" lon="9.29866">
        <ele>25.13</ele>
        <time>2014-06-06T17:02:54Z</time>
      </trkpt>
      <trkpt lat="41.62045" lon="9.2987">
        <ele>25.61</ele>
        <time>2014-06-06T17:02:55Z</time>
      </trkpt>
      <trkpt lat="41.62044" lon="9.29874">
        <ele>24.65</ele>
        <time>2014-06-06T17:02:56Z</time>
      </trkpt>
      <trkpt lat="41.62051" lon="9.29928">
        <ele>23.21</ele>
        <time>2014-06-06T17:03:10Z</time>
      </trkpt>
      <trkpt lat="41.62056" lon="9.29932">
        <ele>24.17</ele>
        <time>2014-06-06T17:03:20Z</time>
      </trkpt>
      <trkpt lat="41.62063" lon="9.29933">
        <ele>23.21</ele>
        <time>2014-06-06T17:03:33Z</time>
      </trkpt>
      <trkpt lat="41.62058" lon="9.2993">
        <ele>24.65</ele>
        <time>2014-06-06T17:03:54Z</time>
      </trkpt>
    </trkseg>
  </trk>
  <rte>
    <name><![CDATA[412o2]]></name>
      <rtept lat="43.29703" lon="3.51239">
        <ele>9.8</ele>
        <name><![CDATA[Début]]></name>
      </rtept>
      <rtept lat="45.53327" lon="4.63035">
        <ele>227</ele>
        <name><![CDATA[Fin]]></name>
      </rtept>
    </rte>
  <rte>
    <name><![CDATA[Enregistremen: 20 Avr. 2014 11:54]]></name>
      <rtept lat="43.29703" lon="3.51239">
        <ele>9.8</ele>
        <name><![CDATA[Début]]></name>
      </rtept>
      <rtept lat="43.29697" lon="3.51234">
        <ele>10</ele>
        <name><![CDATA[Fin]]></name>
      </rtept>
    </rte>
  <rte>
    <name><![CDATA[Enregistremen: 25 Avr. 2014 18:53]]></name>
      <rtept lat="43.29985" lon="3.47166">
        <ele>11.5</ele>
        <name><![CDATA[Début]]></name>
      </rtept>
      <rtept lat="43.29703" lon="3.51217">
        <ele>10.3</ele>
        <name><![CDATA[Fin]]></name>
      </rtept>
    </rte>
  <rte>
    <name><![CDATA[Enregistremen: 26 Avr. 2014 09:29]]></name>
      <rtept lat="43.29708" lon="3.51221">
        <ele>10.1</ele>
        <name><![CDATA[Début]]></name>
      </rtept>
      <rtept lat="44.8036" lon="3.42125">
        <ele>1116.3</ele>
        <name><![CDATA[Fin]]></name>
      </rtept>
    </rte>
  <rte>
    <name><![CDATA[Enregistremen: 26 Avr. 2014 13:36]]></name>
      <rtept lat="44.80459" lon="3.42344">
        <ele>1127.9</ele>
        <name><![CDATA[Début]]></name>
      </rtept>
      <rtept lat="45.5332" lon="4.63052">
        <ele>227</ele>
        <name><![CDATA[Fin]]></name>
      </rtept>
    </rte>
  <rte>
    <name><![CDATA[Enregistremen: 27 Avr. 2014 17:19]]></name>
      <rtept lat="45.53325" lon="4.63029">
        <ele>227</ele>
        <name><![CDATA[Début]]></name>
      </rtept>
      <rtept lat="45.53314" lon="4.6305">
        <ele>227</ele>
        <name><![CDATA[Fin]]></name>
      </rtept>
    </rte>
  <rte>
    <name><![CDATA[Enregistremen: 29 Avr. 2014 16:08]]></name>
      <rtept lat="45.70924" lon="4.98048">
        <ele>212</ele>
        <name><![CDATA[Début]]></name>
      </rtept>
      <rtept lat="45.87983" lon="4.59593">
        <ele>320.7</ele>
        <name><![CDATA[Fin]]></name>
      </rtept>
    </rte>
  <rte>
    <name><![CDATA[Enregistremen: 30 Avr. 2014 13:54]]></name>
      <rtept lat="45.87974" lon="4.59628">
        <ele>312.7</ele>
        <name><![CDATA[Début]]></name>
      </rtept>
      <rtept lat="45.70896" lon="4.98136">
        <ele>212</ele>
        <name><![CDATA[Fin]]></name>
      </rtept>
    </rte>
  <rte>
    <name><![CDATA[Enregistremen: 30 Avr. 2014 14:59]]></name>
      <rtept lat="45.70843" lon="4.98123">
        <ele>212</ele>
        <name><![CDATA[Début]]></name>
      </rtept>
      <rtept lat="45.53091" lon="4.62177">
        <ele>232.5</ele>
        <name><![CDATA[Fin]]></name>
      </rtept>
    </rte>
  <rte>
    <name><![CDATA[Lesfauxrdg]]></name>
      <rtept lat="44.80459" lon="3.42344">
        <ele>1127.9</ele>
        <name><![CDATA[Début]]></name>
      </rtept>
      <rtept lat="45.5332" lon="4.63052">
        <ele>227</ele>
        <name><![CDATA[Fin]]></name>
      </rtept>
    </rte>
</gpx>